NARX Simulation

This is the forecasted data using the NARX model


Time Summary Icon Precipitation Intensity Precipitation Probability Temperature Apparent Temp Dew Point Humidity Wind Speed Wind Bearing Visibility Cloud Cover Pressure Ozone Pi Time Measured Temperature Measured Irradiance Measured Voltage Forecasted Irradiance Forecasted Power
2/24/17 11:00:00 Clear clear-day 0 0 68.58 68.58 54.37 0.61 8.41 201 10 0.09 1013.54 0 2/24/17 10:59:06 91.91 854.492 117.06
2/24/17 12:00:00 Clear clear-day 0 0 71.08 71.08 53.71 0.54 11.28 206 10 0.19 1012.71 0 2/24/17 11:59:03 93.26 927.734 116.93
2/24/17 13:00:00 Clear clear-day 0.0031 0.1 71.97 71.97 53.04 0.51 11.12 205 9.95 0.21 1011.69 0 2/24/17 12:59:11 87.07 952.148 121.92
2/24/17 14:00:00 Partly Cloudy partly-cloudy-day 0 0 71.94 71.94 53.04 0.51 9.61 197 10 0.26 1011 0 2/24/17 13:58:58 78.52 170.898 113.64
2/24/17 15:00:00 Clear clear-day 0 0 72.15 72.15 53.13 0.51 11.65 201 10 0.24 1010.89 0 2/24/17 14:58:55 81.78 439.453 113.12
2/24/17 16:00:00 Partly Cloudy partly-cloudy-day 0 0 70.75 70.75 52.89 0.53 10.33 190 10 0.29 1010.7 0 2/24/17 15:58:52 72.27 48.8281 115.61
2/24/17 17:00:00 Partly Cloudy partly-cloudy-day 0 0 68.95 68.95 52.97 0.57 8.82 188 10 0.27 1010.68 0 2/24/17 16:58:49 70.64 0 106.29
2/24/17 18:00:00 Clear clear-night 0 0 65.47 65.47 53.08 0.64 8.65 170 10 0.19 1010.48 0 2/24/17 17:58:46 67.83 0 48.61
2/24/17 19:00:00 Clear clear-night 0 0 63.24 63.24 53.98 0.72 7.62 167 10 0.08 1010.36 0 2/24/17 18:58:43 65.24 0 0
2/24/17 20:00:00 Clear clear-night 0 0 61.01 61.01 54.69 0.8 7.59 167 10 0.11 1010.35 0 2/24/17 19:58:40 63.61 0 0
2/24/17 21:00:00 Clear clear-night 0 0 60.37 60.37 55.75 0.85 9.14 180 9.95 0.21 1010.33 0 2/24/17 20:58:50 62.32 0 0.13
2/24/17 22:00:00 Clear clear-night 0 0 59.23 59.23 56.26 0.9 7.18 186 10 0.16 1010.48 0 2/24/17 21:58:34 61.36 0 0
2/24/17 23:00:00 Clear clear-night 0 0 58.31 58.31 55.83 0.91 4.96 176 9.89 0.18 1010.24 0 2/24/17 22:58:31 60.86 0 0
2/25/17 00:00:00 Clear clear-night 0 0 57.94 57.94 55.12 0.9 5.85 178 9.83 0.07 1009.88 0 2/24/17 23:58:28 60.8 0 0
2/25/17 01:00:00 Partly Cloudy partly-cloudy-night 0 0 57.62 57.62 54.37 0.89 4.59 190 9.72 0.43 1009.68 0 2/25/17 00:58:25 60.58 0 0
2/25/17 02:00:00 Clear clear-night 0 0 56.99 56.99 54.43 0.91 6.15 186 9.95 0.14 1009.46 0 2/25/17 01:58:22 60.35 0 0
2/25/17 03:00:00 Clear clear-night 0 0 56.33 56.33 54.16 0.92 4.41 182 9.86 0.12 1008.92 0 2/25/17 02:58:19 59.51 0 0
2/25/17 04:00:00 Clear clear-night 0 0 55.62 55.62 53.79 0.94 5.65 177 9.69 0.17 1008.1 0 2/25/17 03:58:21 58.83 0 0
2/25/17 05:00:00 Clear clear-night 0 0 55.53 55.53 53.99 0.95 4.84 181 8.58 0.14 1007.81 0 2/25/17 04:58:12 58.89 0 0
2/25/17 06:00:00 Clear clear-night 0 0 55.57 55.57 54.22 0.95 4.62 179 9.22 0 1007.51 0 2/25/17 05:58:09 59.22 0 0
2/25/17 07:00:00 Partly Cloudy partly-cloudy-day 0 0 55.39 55.39 54.08 0.95 5.66 167 8.43 0.44 1007 0 2/25/17 06:58:06 59.22 0 103.92
2/25/17 08:00:00 Clear clear-day 0 0 57.43 57.43 55.1 0.92 5.6 164 8.77 0.19 1006.61 0 2/25/17 07:58:03 60.29 24.4141 114.04 0 0
2/25/17 09:00:00 Partly Cloudy partly-cloudy-day 0 0 61.45 61.45 55.88 0.82 9.63 169 9.88 0.29 1005.71 0 2/25/17 08:58:00 70.7 512.695 122.18 329.244 3.0704
2/25/17 10:00:00 Clear clear-day 0 0 65.39 65.39 56.31 0.72 10.52 181 9.95 0.1 1004.95 0 2/25/17 09:57:57 76.04 683.594 121.39 71.3308 0.66521
2/25/17 11:00:00 Clear clear-day 0 0 68.14 68.14 55.74 0.65 11.05 181 9.95 0.09 1004.22 0 2/25/17 10:57:54 71.04 170.898 118.11 388.673 726.093
2/25/17 12:00:00 Clear clear-day 0 0 69.94 69.94 55.32 0.6 12.52 171 10 0.17 1002.8 0 2/25/17 11:57:51 74.92 195.312 116.01 344.602 643.763
2/25/17 13:00:00 Partly Cloudy partly-cloudy-day 0 0 70.01 70.01 55.17 0.59 11.42 179 10 0.56 1001.22 0 2/25/17 12:57:48 82.85 976.562 122.97 288.693 504.104
2/25/17 14:00:00 Partly Cloudy partly-cloudy-day 0 0 70.23 70.23 54.47 0.57 12.73 171 10 0.31 999.82 0 2/25/17 13:57:45 73.85 268.555 120.21 361.225 677.432
2/25/17 15:00:00 Partly Cloudy partly-cloudy-day 0 0 70.33 70.33 54.23 0.57 16.04 159 9.95 0.29 997.48 0 2/25/17 14:57:42 81.78 610.352 117.71 185.703 347.707
2/25/17 16:00:00 Drizzle rain 0.009 0.48 65.99 65.99 53.08 0.63 14.47 166 9.13 0.18 996.49 0 2/25/17 15:57:39 70.53 0 112.33 304.985 573.626
2/25/17 17:00:00 Rain rain 0.1647 0.84 58.05 58.05 52.95 0.83 13.55 284 5.16 0.09 997.64 0 2/25/17 16:57:36 66.99 0 58.86 338.621 608.087
2/25/17 18:00:00 Light Rain rain 0.0408 0.7 51.64 51.64 48.39 0.89 11.24 305 7.84 0.31 1000.9 0 2/25/17 17:57:33 52.03 0 17.34 0 0
2/25/17 19:00:00 Rain rain 0.056 0.74 49.6 45.56 45.42 0.85 9.93 315 8.59 1 1002.89 0 2/25/17 18:57:30 50.96 0 0.66 0 0
2/25/17 20:00:00 Drizzle rain 0.0077 0.39 48.82 46.19 42.94 0.8 6.13 322 10 0.15 1003.03 0 2/25/17 20:02:27 50.79 0 0.13 16.7341 0.15606
2/25/17 21:00:00 Partly Cloudy partly-cloudy-night 0 0 48.03 44.75 41.92 0.79 7.14 314 10 0.31 1003.68 0 2/25/17 21:02:33 50.56 0 0 74.4994 0.69476
2/25/17 22:00:00 Partly Cloudy partly-cloudy-night 0.0015 0.03 47.41 42.2 37.75 0.69 11.91 293 10 0.28 1005.2 0 2/25/17 22:02:20 49.83 0 0.53 0 0
2/25/17 23:00:00 Clear clear-night 0 0 45.61 39.32 31.44 0.57 13.91 299 10 0.14 1005.77 0 2/25/17 23:02:17 46.91 0 0 0 0
2/26/17 00:00:00 Clear clear-night 0 0 43.88 36.53 27.66 0.53 16.01 300 10 0.12 1007.23 0 2/26/17 00:02:13 44.66 0 0.13 80.8175 0.75368
2/26/17 01:00:00 Clear clear-night 0 0 42.08 34.87 25.9 0.52 13.77 295 10 0.12 1008.42 0 2/26/17 01:02:10 43.87 0 0 126.04 1.1754
2/26/17 02:00:00 Clear clear-night 0 0 40.71 32.96 25.2 0.54 14.31 296 10 0.12 1009.42 0 2/26/17 02:02:06 42.07 0 0 58.374 0.54438
2/26/17 03:00:00 Clear clear-night 0 0 38.8 30.27 22.52 0.52 15.09 295 10 0.02 1010.15 0 2/26/17 03:02:03 39.31 0 0 0 0
2/26/17 04:00:00 Clear clear-night 0 0 36.95 28.72 20.72 0.51 12.72 290 10 0.12 1011.07 0 2/26/17 04:01:59 38.81 0 0 46.2327 0.43115
2/26/17 05:00:00 Clear clear-night 0 0 36.54 28.81 19.94 0.51 11.24 297 10 0.14 1012.39 0 2/26/17 05:01:56 38.53 0 0 232.23 2.1657
2/26/17 06:00:00 Clear clear-night 0 0 36.21 27.98 19.73 0.51 12.26 299 10 0 1013.69 0 2/26/17 06:01:52 38.69 0 0.66 222.827 2.078
2/26/17 07:00:00 Mostly Cloudy partly-cloudy-day 0 0 35.65 26.35 18.86 0.5 14.75 299 10 0.75 1014.72 0 2/26/17 07:01:49 39.59 0 109.96 414.078 730.86
2/26/17 08:00:00 Clear clear-day 0 0 35.69 26.41 18.83 0.5 14.72 299 10 0 1016.08 0 2/26/17 08:01:45 39.71 0 118.63 372.404 699.49
2/26/17 09:00:00 Partly Cloudy partly-cloudy-day 0 0 35.83 26.21 17.7 0.47 15.87 298 10 0.31 1017.23 0 2/26/17 09:01:47 43.25 146.484 126.12 778 1358.51
2/26/17 10:00:00 Clear clear-day 0 0 36.85 27.49 16.73 0.43 15.96 293 10 0 1017.95 0 2/26/17 10:01:38 66.59 952.148 121.79 693.896 1223.72
2/26/17 11:00:00 Partly Cloudy partly-cloudy-day 0 0 37.66 28.8 16.99 0.43 15.13 291 10 0.31 1018.61 0 2/26/17 11:01:35 70.76 927.734 122.71 800.347 1492.32
2/26/17 12:00:00 Partly Cloudy partly-cloudy-day 0 0 38.72 30.73 17.26 0.41 13.37 296 10 0.28 1018.77 0 2/26/17 12:01:31 73.79 1123.05 124.55 587.561 1099.66
2/26/17 13:00:00 Partly Cloudy partly-cloudy-day 0 0 40.25 32.54 16.95 0.38 13.77 298 10 0.26 1018.68 0 2/26/17 13:01:28 74.36 976.562 123.5 433.686 749.647
2/26/17 14:00:00 Partly Cloudy partly-cloudy-day 0 0 40.75 33.26 17.24 0.38 13.51 287 10 0.25 1018.84 0 2/26/17 14:01:25 68.62 854.492 124.02 440.938 823.73
2/26/17 15:00:00 Partly Cloudy partly-cloudy-day 0 0 41.28 34.22 16.97 0.37 12.66 292 10 0.3 1019.25 0 2/26/17 15:01:21 69.07 659.18 123.76 180.246 338.519
2/26/17 16:00:00 Clear clear-day 0 0 41.47 34.42 17.08 0.37 12.79 287 10 0.23 1019.89 0 2/26/17 16:01:18 45.16 24.4141 121 404.452 759.686
2/26/17 17:00:00 Clear clear-day 0 0 40.78 33.44 17.52 0.39 13.1 282 10 0.23 1020.72 0 2/26/17 17:01:15 42.07 0 114.17 122.685 173.688
2/26/17 18:00:00 Clear clear-night 0 0 39.44 32.37 17.55 0.41 11.38 288 10 0.17 1021.99 0 2/26/17 18:01:16 40.55 0 60.17 89.4413 51.2581
2/26/17 19:00:00 Clear clear-night 0 0 38.17 32.77 18.27 0.44 7.26 292 10 0.1 1023.12 0 2/26/17 19:01:08 39.43 0 0 259.533 2.4203
2/26/17 20:00:00 Clear clear-night 0 0 36.86 31.8 18.57 0.47 6.3 292 10 0.08 1023.91 0 2/26/17 20:01:04 38.19 0 0.13 516.881 4.8203
2/26/17 21:00:00 Clear clear-night 0 0 35.6 31.23 18.44 0.49 5.09 278 10 0 1024.7 0 2/26/17 21:01:01 37.91 0 0 129.103 1.204
2/26/17 22:00:00 Clear clear-night 0 0 34.28 30.52 18.98 0.53 4.18 263 10 0 1025.34 0 2/26/17 22:00:57 37.12 0 0 337.381 3.1463
2/26/17 23:00:00 Clear clear-night 0 0 33.26 29.03 20 0.58 4.5 267 10 0 1025.61 0 2/26/17 23:00:54 36.44 0 0 575.054 5.3628
2/27/17 00:00:00 Clear clear-night 0 0 31.73 27.48 19.65 0.61 4.27 219 10 0 1025.94 0 2/27/17 00:00:50 36.72 0 0 100.409 0.93639
2/27/17 01:00:00 Clear clear-night 0 0 30.44 27.43 21.03 0.68 3.09 199 10 0 1026.32 0 2/27/17 01:00:47 34.14 0 0 245.115 2.2859
2/27/17 02:00:00 Clear clear-night 0 0 30.09 25.14 21.43 0.7 4.68 204 10 0 1026.77 0 2/27/17 02:00:43 34.36 0 0 241.224 2.2496
2/27/17 03:00:00 Clear clear-night 0 0 29.86 25.56 20.87 0.69 4.04 213 9.95 0 1027.42 0 2/27/17 03:00:42 33.97 0 0 223.83 2.0874
2/27/17 04:00:00 Clear clear-night 0 0 30.37 30.37 21.84 0.7 1.78 226 9.95 0 1027.95 0 2/27/17 04:00:36 33.01 0 0 414.678 3.8672
2/27/17 05:00:00 Clear clear-night 0 0 29.9 25.68 22.29 0.73 3.97 210 9.94 0.12 1028.81 0 2/27/17 05:00:54 33.52 0 0 553.159 5.1586
2/27/17 06:00:00 Partly Cloudy partly-cloudy-night 0 0 29.77 29.77 22.8 0.75 2.39 212 9.95 0.31 1028.88 0 2/27/17 06:00:51 34.59 0 0.79 180.439 1.6827
2/27/17 07:00:00 Clear clear-day 0 0 30.49 25.89 23.77 0.76 4.4 184 9.82 0.16 1029.48 0 2/27/17 07:00:47 34.98 0 111.54 333.194 602.518
2/27/17 08:00:00 Clear clear-day 0 0 35.36 31.6 26.69 0.7 4.36 226 9.82 0.1 1030.25 0 2/27/17 08:00:44 38.69 0 121.79 300.042 561.546
2/27/17 09:00:00 Clear clear-day 0 0 40.38 36.3 28.74 0.63 5.87 217 9.88 0.15 1030.47 0 2/27/17 09:00:40 47.64 341.797 126.25 600.749 998.218
2/27/17 10:00:00 Partly Cloudy partly-cloudy-day 0 0 45.2 41.05 29.6 0.54 7.73 216 9.88 0.31 1030.82 0 2/27/17 10:00:37 50.11 219.727 123.89 774.467 1365.81
2/27/17 11:00:00 Partly Cloudy partly-cloudy-day 0 0 48.83 44.47 29.9 0.48 10.36 223 9.94 0.31 1030.7 0 2/27/17 11:00:33 58.21 512.695 124.94 601.956 1094.73
2/27/17 12:00:00 Partly Cloudy partly-cloudy-day 0 0 50.88 50.88 28.52 0.42 9.2 214 10 0.31 1030.18 0 2/27/17 12:00:30 55.18 439.453 124.68 805.281 1477.67
2/27/17 13:00:00 Partly Cloudy partly-cloudy-day 0 0 52.82 52.82 28.64 0.39 9.53 214 9.9 0.5 1029.05 0 2/27/17 13:00:30 63.11 488.281 123.1 989.759 1710.85
2/27/17 14:00:00 Clear clear-day 0 0 52.88 52.88 26.83 0.36 11.94 228 10 0.22 1028.53 0 2/27/17 14:00:24 56.02 170.898 121.66 765.607 1392.35
2/27/17 15:00:00 Clear clear-day 0 0 52.7 52.7 26.84 0.36 10.15 230 10 0.15 1028.46 0 2/27/17 15:00:20 54.84 48.8281 120.47 297.585 549.048
2/27/17 16:00:00 Clear clear-day 0 0 52.19 52.19 28.18 0.39 9.56 235 10 0.2 1028.98 0 2/27/17 16:00:17 54.56 0 114.96 717.583 1343
2/27/17 17:00:00 Clear clear-day 0 0 51.54 51.54 28.83 0.41 9.26 246 10 0.21 1029.39 0 2/27/17 17:00:14 53.32 0 110.75 251.419 400.661
2/27/17 18:00:00 Partly Cloudy partly-cloudy-night 0 0 50.27 50.27 29.83 0.45 7.41 238 10 0.31 1029.6 0 2/27/17 18:00:11 51.69 0 50.97 104.486 76.2988
2/27/17 19:00:00 Overcast cloudy 0 0 48.95 46.95 29.5 0.47 5.06 210 10 1 1029.38 0 2/27/17 19:00:07 51.01 0 0.39 113.444 1.0579
2/27/17 20:00:00 Clear clear-night 0 0 47.79 47.79 30.73 0.51 2.98 212 10 0.13 1029.3 0 2/27/17 20:00:04 50.11 0 0 52.2533 0.4873
2/27/17 21:00:00 Clear clear-night 0 0 45.79 44.55 31.26 0.57 3.37 190 10 0.15 1029.22 0 2/27/17 21:00:01 48.82 0 0.26 179.475 1.6737
2/27/17 22:00:00 Clear clear-night 0 0 45.06 45.06 32.33 0.61 2.63 169 10 0.05 1029.3 0 2/27/17 21:59:58 48.99 0 0.26 0 0
2/27/17 23:00:00 Clear clear-night 0 0 43.71 41.24 32.75 0.65 4.45 154 10 0.03 1029.03 0 2/27/17 22:59:54 48.59 0 0.13 89.3956 0.83368
2/28/17 00:00:00 Clear clear-night 0 0 43.13 41.07 33.13 0.68 3.85 147 10 0.2 1028.62 0 2/27/17 23:59:51 48.31 0 0.39 0 0
2/28/17 01:00:00 Mostly Cloudy partly-cloudy-night 0 0 43.87 43.87 33.44 0.66 2.53 237 10 0.89 1028.57 0 2/28/17 00:59:47 49.04 0 0.39 9.437 0.088006
2/28/17 02:00:00 Clear clear-night 0 0 44.18 44.18 33.92 0.67 1.86 177 10 0 1028.17 0 2/28/17 01:59:44 48.76 0 0.26 87.2703 0.81386
2/28/17 03:00:00 Clear clear-night 0 0 43.17 43.17 34.7 0.72 2.13 84 9.95 0 1027.64 0 2/28/17 02:59:41 48.31 0 0.13 84.2156 0.78537
2/28/17 04:00:00 Clear clear-night 0 0 42.45 42.45 35.25 0.75 2.81 82 9.95 0 1027.27 0 2/28/17 03:59:38 48.26 0 0 49.4632 0.46128
2/28/17 05:00:00 Clear clear-night 0 0 42.34 41.02 35.44 0.76 3 50 9.95 0 1027.29 0 2/28/17 04:59:39 48.54 0 0 78.7968 0.73484
2/28/17 06:00:00 Partly Cloudy partly-cloudy-night 0 0 41.89 40.23 35.61 0.78 3.25 48 9.95 0.31 1027.11 0 2/28/17 05:59:31 49.27 0 0.39 369.869 3.4493
2/28/17 07:00:00 Partly Cloudy partly-cloudy-day 0 0 41.07 41.07 35.62 0.81 2.44 3 9.82 0.35 1026.89 0 2/28/17 06:59:28 47.53 0 110.62 355.446 649.152
2/28/17 08:00:00 Clear clear-day 0 0 44.52 44.52 36.36 0.73 2.81 58 9.58 0.1 1027.16 0 2/28/17 07:59:24 50.06 0 116.66 482.892 890.94
2/28/17 09:00:00 Clear clear-day 0 0 49.91 48.96 36.63 0.6 3.75 86 9.88 0.08 1026.87 0 2/28/17 08:59:22 74.24 512.695 122.44 669.476 1095.71
2/28/17 10:00:00 Clear clear-day 0 0 54.4 54.4 39.41 0.57 2.93 73 9.95 0.09 1026.59 0 2/28/17 09:59:18 74.13 781.25 119.16 667.666 1165.85
2/28/17 11:00:00 Clear clear-day 0 0 57.4 57.4 41.23 0.55 4.61 148 9.95 0 1026.03 0 2/28/17 10:59:15 75.26 585.938 118.24 750.049 1348.34
2/28/17 12:00:00 Clear clear-day 0 0 60.46 60.46 42.22 0.51 3.86 160 10 0 1025.1 0 2/28/17 11:59:17 89.77 805.664 117.45 475.638 855.039
2/28/17 13:00:00 Clear clear-day 0 0 62.89 62.89 43.4 0.49 4.14 176 10 0.2 1023.61 0 2/28/17 12:59:09 71.6 195.312 117.32 645.085 1115.06
2/28/17 14:00:00 Clear clear-day 0 0 63.72 63.72 44.43 0.49 5.29 185 10 0.04 1021.98 0 2/28/17 13:59:06 68.68 170.898 118.9 569.051 1028.97
2/28/17 15:00:00 Clear clear-day 0 0 64.24 64.24 45.64 0.51 5.45 198 10 0.17 1021.12 0 2/28/17 14:59:03 67.21 73.2422 117.19 261.047 479.014
2/28/17 16:00:00 Clear clear-day 0 0 63.37 63.37 46.46 0.54 6.67 187 10 0.13 1020.19 0 2/28/17 15:59:00 66.43 48.8281 115.22 339.843 639.187
2/28/17 17:00:00 Partly Cloudy partly-cloudy-day 0 0 62.22 62.22 47.77 0.59 5.9 201 9.96 0.31 1020.21 0 2/28/17 16:58:57 64.46 0 103.26 172.156 286.025
2/28/17 18:00:00 Light Rain rain 0.0192 0.6 60.45 60.45 50.01 0.68 7.54 201 8.31 0.31 1020.73 0 2/28/17 17:58:54 60.24 0 13.27 138.508 106.264
2/28/17 19:00:00 Light Rain rain 0.0312 0.67 57.62 57.62 52.01 0.82 5.78 189 8.35 0.89 1019.9 0 2/28/17 18:58:51 56.75 0 0.66 2.4773 0.023102
2/28/17 20:00:00 Light Rain rain 0.0119 0.53 56.69 56.69 52.33 0.85 3.25 216 10 0.31 1019.07 0 2/28/17 19:58:48 58.55 0 0.66 17.3283 0.1616
2/28/17 21:00:00 Partly Cloudy partly-cloudy-night 0.0024 0.07 56.13 56.13 52.33 0.87 5.26 180 10 0.31 1018.4 0 2/28/17 20:58:45 58.49 0 0.66 40.8466 0.38092
2/28/17 22:00:00 Partly Cloudy partly-cloudy-night 0 0 55.92 55.92 52.66 0.89 4.82 191 9.41 0.31 1017.57 0 2/28/17 21:58:42 57.59 0 0.26 0 0
2/28/17 23:00:00 Partly Cloudy partly-cloudy-night 0.0024 0.07 55.9 55.9 54.3 0.94 6.61 197 8.11 0.31 1016.51 0 2/28/17 22:58:38 57.2 0 0.66 1.6201 0.015108
3/1/17 00:00:00 Clear clear-night 0.0038 0.14 56.24 56.24 54.55 0.94 7.83 202 7.57 0 1015.16 0 2/28/17 23:59:00 57.37 0 0.79 0 0
3/1/17 01:00:00 Drizzle rain 0.0075 0.37 56.13 56.13 54.98 0.96 7.28 196 7.87 1 1014.37 0 10.6811 0.099609
3/1/17 02:00:00 Partly Cloudy partly-cloudy-night 0.0017 0.04 56.25 56.25 54.93 0.95 7.3 211 7.76 0.31 1013.23 0 0 0
3/1/17 03:00:00 Clear clear-night 0 0 55.85 55.85 54.68 0.96 6.88 212 8.22 0 1012.29 0 2.911 0.027147
3/1/17 04:00:00 Clear clear-night 0 0 55.82 55.82 54.53 0.95 7.01 211 7.39 0 1011.29 0 10.1648 0.094794
3/1/17 05:00:00 Partly Cloudy partly-cloudy-night 0 0 55.94 55.94 54.8 0.96 7.93 208 6.57 0.31 1010.63 0 0 0
3/1/17 06:00:00 Clear clear-night 0 0 56.42 56.42 55.07 0.95 8.39 216 6.93 0 1009.92 0 0 0
3/1/17 07:00:00 Overcast cloudy 0 0 56.47 56.47 54.74 0.94 8.34 223 6.59 1 1008.89 0 0 0
3/1/17 08:00:00 Clear clear-day 0 0 56.59 56.59 55.26 0.95 7.83 211 7.16 0 1008.47 0 3/1/17 08:00:45 57.71 0 107.73 116.622 216.32
3/1/17 09:00:00 Clear clear-day 0.001 0.01 58.43 58.43 56.14 0.92 7.72 206 8.25 0 1006.96 0 3/1/17 09:00:42 59.9 0 114.43 58.1201 96.5736
3/1/17 10:00:00 Drizzle rain 0.0072 0.35 61.23 61.23 57.76 0.88 9.23 213 8.09 0 1005.98 0 3/1/17 10:00:39 60.52 0 113.38 150.911 266.14
3/1/17 11:00:00 Drizzle rain 0.006 0.27 62.65 62.65 59.21 0.89 8.57 227 8.31 0 1005.13 0 3/1/17 11:00:36 63.28 48.8281 117.19 0 0
3/1/17 12:00:00 Clear clear-day 0.0009 0.01 65.81 65.81 60.37 0.83 12.8 230 9.38 0 1003.53 0 3/1/17 12:00:32 68.17 73.2422 117.98 0 0
3/1/17 13:00:00 Partly Cloudy partly-cloudy-day 0 0 70.27 70.27 60.41 0.71 18.24 224 9.82 0.42 1001.88 0 3/1/17 13:00:30 85.1 732.422 119.16 33.4822 59.0475
3/1/17 14:00:00 Clear clear-day 0 0 71.31 71.31 59.9 0.67 19.05 221 9.88 0.17 1000.65 0 3/1/17 14:00:27 73.74 170.898 118.77 161.703 294.077
3/1/17 15:00:00 Light Rain rain 0.0182 0.59 70.65 70.65 60.91 0.71 17.93 225 9.64 0.27 1000.66 0 3/1/17 15:00:24 71.21 24.4141 116.66 225.955 416.889
3/1/17 16:00:00 Drizzle rain 0.0069 0.33 68.64 68.64 60.03 0.74 14.13 225 9.88 0.14 998.98 0 3/1/17 16:00:21 67.49 0 106.02 245.827 462.36
3/1/17 17:00:00 Clear clear-day 0 0 67.67 67.67 54.93 0.64 15.98 236 10 0.02 999.51 0 3/1/17 17:00:18 67.72 0 104.97 114.073 191.595
3/1/17 18:00:00 Clear clear-night 0 0 66.25 66.25 50.58 0.57 11.65 226 10 0.02 999.38 0 3/1/17 18:00:15 65.58 0 37.71 35.7935 23.4907
3/1/17 19:00:00 Partly Cloudy partly-cloudy-night 0 0 65.77 65.77 51.62 0.6 15.75 230 10 0.33 999.56 0 3/1/17 19:00:12 65.19 0 0.53 123.537 1.1521
3/1/17 20:00:00 Clear clear-night 0 0 65.77 65.77 50.22 0.57 15.81 229 10 0 999.06 0 3/1/17 20:00:09 65.41 0 0.39 53.5406 0.4993
3/1/17 21:00:00 Clear clear-night 0 0 65.32 65.32 49.88 0.57 16.45 229 10 0 999.01 0 3/1/17 21:00:06 64.79 0 0.26 114.774 1.0703
3/1/17 22:00:00 Clear clear-night 0 0 64.48 64.48 50.14 0.6 16.59 231 10 0 998.92 0 3/1/17 22:00:03 63.39 0 0.26 189.293 1.7653
3/1/17 23:00:00 Clear clear-night 0 0 62.97 62.97 50.83 0.65 14.6 229 10 0.02 998.73 0 3/1/17 23:00:00 62.15 0 0 54.7888 0.51094
3/2/17 00:00:00 Clear clear-night 0 0 62.26 62.26 51.56 0.68 15.67 233 10 0.21 998.66 0 3/1/17 23:59:57 61.25 0 0
3/2/17 01:00:00 Partly Cloudy partly-cloudy-night 0 0 61.2 61.2 50.17 0.67 14.3 246 10 0.58 998.86 0 3/2/17 00:59:54 60.91 0 0
3/2/17 02:00:00 Breezy wind 0 0 59.74 59.74 40.42 0.49 24.46 270 10 0.21 999.51 0 3/2/17 01:59:51 61.76 0 0.26
3/2/17 03:00:00 Breezy wind 0 0 55.43 55.43 30.02 0.38 22.18 279 10 0.18 1000.68 0 3/2/17 02:59:47 56.41 0 0
3/2/17 04:00:00 Breezy wind 0 0 50.77 50.77 24.35 0.35 23.75 279 10 0.16 1002.23 0 3/2/17 03:59:44 51.24 0 0
3/2/17 05:00:00 Breezy wind 0 0 48.49 41.52 24.62 0.39 20.52 271 10 0.11 1003.15 0 3/2/17 04:59:41 49.04 0 0 276.752 2.5809
3/2/17 06:00:00 Clear clear-night 0 0 46.83 39.77 24.17 0.41 18.47 280 10 0.13 1004.24 0 3/2/17 05:59:38 47.41 0 0.53 0 0
3/2/17 07:00:00 Breezy wind 0 0 45.33 37.1 24.28 0.43 21.85 281 10 0.22 1005.68 0 3/2/17 06:59:34 46.85 73.2422 113.38 455.659 833.722
3/2/17 08:00:00 Breezy and Partly Cloudy wind 0 0 44.46 35.73 23.77 0.44 22.94 289 10 0.25 1007.46 0 3/2/17 07:59:31 46.01 0 115.22 172.402 324.259
3/2/17 09:00:00 Breezy wind 0 0 43.89 34.9 21.19 0.4 23.36 288 10 0.19 1008.8 0 3/2/17 08:59:28 60.46 659.18 126.12 671.807 1173.08
3/2/17 10:00:00 Breezy wind 0 0 44.26 35.43 20.5 0.38 23.09 288 10 0.13 1009.95 0 3/2/17 09:59:24 64.06 805.664 125.07 220.592 398.882
3/2/17 11:00:00 Clear clear-day 0 0 44.59 36.35 20.99 0.39 20.7 294 10 0.16 1010.85 0 3/2/17 10:59:21 77.68 976.562 124.28 560.356 1019.08
3/2/17 12:00:00 Clear clear-day 0 0 44.89 36.47 20.15 0.37 22.05 295 10 0.17 1011.52 0 3/2/17 11:59:18 77 1000.98 123.23 524.296 953.498
3/2/17 13:00:00 Partly Cloudy partly-cloudy-day 0 0 45.34 37.28 20.6 0.37 20.97 289 10 0.25 1012.01 0 3/2/17 12:59:19 77.79 927.734 123.63 395.533 704.333
3/2/17 14:00:00 Clear clear-day 0 0 44.94 36.85 19.88 0.36 20.54 294 10 0.21 1012.54 0 3/2/17 13:59:11 65.52 830.078 124.81 318.108 578.518
3/2/17 15:00:00 Clear clear-day 0 0 45.16 37.1 19.77 0.36 20.71 293 10 0.18 1013.36 0 3/2/17 14:59:08 65.3 512.695 124.42 319.563 589.596
3/2/17 16:00:00 Clear clear-day 0 0 44.99 37.25 18.02 0.34 18.96 300 10 0.15 1014.19 0 3/2/17 15:59:05 49.21 0 121.13 186.616 350.522
3/2/17 17:00:00 Clear clear-day 0 0 44.47 37.3 17 0.33 15.98 289 10 0.08 1015.13 0 3/2/17 17:02:02 45.84 0 111.8 97.6211 165.736
3/2/17 18:00:00 Clear clear-night 0 0 42.74 36.41 16.7 0.35 11.67 297 10 0.08 1016.33 0 3/2/17 18:01:58 44.15 0 70.29 318.844 209.252
3/2/17 19:00:00 Clear clear-night 0 0 41.67 35.51 16.33 0.35 10.51 296 10 0.08 1017.67 0 3/2/17 19:01:55 43.25 0 0 120.1 1.12
3/2/17 20:00:00 Clear clear-night 0 0 40.71 33.91 16.46 0.37 11.54 293 10 0.1 1018.72 0 3/2/17 20:01:51 42.01 0 0.26 17.6624 0.16471
3/2/17 21:00:00 Clear clear-night 0 0 39.88 32.71 15.99 0.37 11.95 296 10 0.08 1019.52 0 3/2/17 21:01:48 41.34 0 0 54.785 0.51091
3/2/17 22:00:00 Clear clear-night 0 0 38.49 31.41 15.86 0.39 10.82 294 10 0.01 1020.45 0 3/2/17 22:01:44 39.48 0 0.13 108.795 1.0146
3/2/17 23:00:00 Clear clear-night 0 0 37.1 30.12 14.74 0.39 9.85 293 10 0.11 1020.89 0 3/2/17 23:01:46 38.47 0 0 468.603 4.3701
3/3/17 00:00:00 Clear clear-night 0 0 36.13 29.22 14.56 0.41 9.24 294 10 0.08 1021.03 0 3/3/17 00:01:37 37.63 0 0 368.945 3.4407
3/3/17 01:00:00 Clear clear-night 0 0 34.97 28.25 14.84 0.43 8.37 289 10 0.09 1021.51 0 3/3/17 01:01:34 37.23 0 0 402.771 3.7561
3/3/17 02:00:00 Clear clear-night 0 0 34.17 26.56 14.08 0.43 9.71 294 10 0.08 1021.87 0 3/3/17 02:01:30 35.88 0 0 641.174 5.9794
3/3/17 03:00:00 Clear clear-night 0 0 33.2 25.21 13.06 0.43 10 295 10 0.15 1021.83 0 3/3/17 03:01:27 34.19 0 0 360.65 3.3633
3/3/17 04:00:00 Clear clear-night 0 0 32.1 24.97 13.02 0.45 7.99 297 10 0.15 1022.27 0 3/3/17 04:01:23 35.6 0 0 188.335 1.7564
3/3/17 05:00:00 Clear clear-night 0 0 31.3 25.3 12.73 0.46 6.12 306 10 0.18 1023.14 0 3/3/17 05:01:19 32.39 0 0 122.895 1.1461
3/3/17 06:00:00 Clear clear-night 0 0 30.62 24.22 12.77 0.47 6.47 300 10 0.17 1023.81 0 3/3/17 06:01:16 33.46 0 2.63 108.742 1.0141
3/3/17 07:00:00 Clear clear-day 0 0 30 24.41 13.22 0.49 5.35 300 10 0.11 1024.08 0 3/3/17 07:01:12 32.06 73.2422 119.16 132.85 244.708
3/3/17 08:00:00 Clear clear-day 0 0 32.19 24.22 12.78 0.44 9.5 295 10 0.08 1024.92 0 3/3/17 08:01:08 34.08 0 118.37 353.308 664.513
3/3/17 09:00:00 Clear clear-day 0 0 33.92 25.71 11.1 0.38 10.84 297 10 0.12 1025.17 0 3/3/17 09:01:05 55.79 683.594 127.04 174.464 301.57
3/3/17 10:00:00 Clear clear-day 0 0 35.05 26.69 9.3 0.34 11.83 303 10 0.21 1025.1 0 3/3/17 10:01:01 48.54 219.727 123.63 222.749 400.43
3/3/17 11:00:00 Partly Cloudy partly-cloudy-day 0 0 36.79 28.88 11 0.34 11.82 297 10 0.31 1025.12 0 3/3/17 11:00:58 46.57 268.555 124.55 454.418 816.892
3/3/17 12:00:00 Partly Cloudy partly-cloudy-day 0 0 36.88 28.5 11.23 0.34 13.1 294 10 0.31 1025.14 0 3/3/17 12:00:54 49.04 463.867 126.65 510.415 922.947
3/3/17 13:00:00 Mostly Cloudy partly-cloudy-day 0 0 37.45 29.3 11.07 0.33 12.88 288 10 0.63 1024.74 0 3/3/17 13:00:51 45.16 97.6563 122.97 460.363 811.872
3/3/17 14:00:00 Clear clear-day 0 0 37.55 29.48 10.91 0.33 12.74 295 9.58 0.22 1024.49 0 3/3/17 14:00:47 52.64 317.383 123.89 339.99 611.189
3/3/17 15:00:00 Clear clear-day 0 0 36.41 26.97 14.71 0.41 15.82 289 9.44 0.23 1024.71 0 3/3/17 15:00:44 43.25 0 119.03 382.053 701.056
3/3/17 16:00:00 Partly Cloudy partly-cloudy-day 0 0 34.54 25.71 20.96 0.57 12.68 291 8.38 0.31 1025.69 0 3/3/17 16:00:40 38.47 0 121 0 0
3/3/17 17:00:00 Clear clear-day 0 0 33.67 23.34 21.05 0.59 16.14 299 7.3 0.2 1026.4 0 3/3/17 17:00:37 37.06 0 115.22 34.9038 60.0266
3/3/17 18:00:00 Partly Cloudy partly-cloudy-night 0 0 31.48 22.55 21.72 0.67 11.07 303 10 0.25 1027.77 0 3/3/17 18:00:43 33.18 0 78.3 0 0
3/3/17 19:00:00 Clear clear-night 0 0 31.13 22.05 19.53 0.62 11.23 288 10 0.12 1028.69 0 3/3/17 19:00:30 32.79 0 0 84.4196 0.78727
3/3/17 20:00:00 Clear clear-night 0 0 30.99 21.75 17.07 0.56 11.5 296 10 0.22 1029.37 0 3/3/17 20:00:26 32.22 0 0 36.8438 0.34359
3/3/17 21:00:00 Clear clear-night 0 0 30.59 21.6 12.39 0.46 10.74 304 10 0.24 1030.4 0 3/3/17 21:00:22 31.94 0 0 69.0068 0.64354
3/3/17 22:00:00 Partly Cloudy partly-cloudy-night 0 0 29.35 18.88 9.91 0.43 13.3 310 10 0.25 1031.47 0 3/3/17 22:00:18 32.11 0 0.13 349.545 3.2598
3/3/17 23:00:00 Clear clear-night 0 0 28.28 18.51 7.29 0.4 11.14 310 10 0.22 1031.97 0 3/3/17 23:00:15 31.04 0 0 0 0
3/4/17 00:00:00 Clear clear-night 0 0 27.33 16.98 6.67 0.41 11.85 309 10 0.16 1032.48 0 3/4/17 00:00:11 28.57 0 0 473.531 4.416
3/4/17 01:00:00 Clear clear-night 0 0 26.03 15.17 6.21 0.42 12.21 309 10 0.17 1032.86 0 3/4/17 01:00:07 29.75 0 0 0 0
3/4/17 02:00:00 Clear clear-night 0 0 25.13 15.42 5.84 0.43 9.65 305 10 0.03 1033.08 0 3/4/17 02:00:03 26.04 0 0 0 0
3/4/17 03:00:00 Clear clear-night 0 0 24.35 14.61 5.98 0.45 9.38 314 10 0.04 1033.2 0 3/4/17 03:00:00 26.88 0 0 0 0
3/4/17 04:00:00 Clear clear-night 0 0 23.41 15.13 6.73 0.48 7.01 308 10 0 1033.43 0 3/4/17 03:59:56 24.52 0 0 0 0
3/4/17 05:00:00 Clear clear-night 0 0 22.61 15.31 7.36 0.51 5.72 296 10 0 1034.1 0 3/4/17 04:59:52 24.91 0 0 0 0
3/4/17 06:00:00 Clear clear-night 0 0 21.95 13.91 7.8 0.54 6.39 277 10 0 1034.38 0 3/4/17 05:59:48 24.01 0 4.6 126.078 2.3515
3/4/17 07:00:00 Clear clear-day 0 0 22.57 15.31 8.5 0.54 5.67 267 10 0 1034.91 0 3/4/17 06:59:44 23.96 97.6563 121.26 119.13 221.949
3/4/17 08:00:00 Clear clear-day 0 0 25.35 16.09 8.81 0.49 8.99 269 10 0 1035.14 0 3/4/17 07:59:41 25.47 0 120.47 312.48 584.825
3/4/17 09:00:00 Clear clear-day 0 0 27.35 17.23 8.57 0.44 11.4 298 10 0.19 1034.85 0 3/4/17 08:59:37 49.89 659.18 128.23 355.951 600.244
3/4/17 10:00:00 Partly Cloudy partly-cloudy-day 0 0 28.62 17.54 7.81 0.41 14.28 302 10 0.31 1034.61 0 3/4/17 09:59:36 41.56 244.141 127.31 162.266 288.95
3/4/17 11:00:00 Partly Cloudy partly-cloudy-day 0 0 30.43 19.94 7.5 0.37 14.05 305 10 0.31 1034.54 0 3/4/17 10:59:29 54.84 976.562 129.28 265.972 469.054
3/4/17 12:00:00 Partly Cloudy partly-cloudy-day 0 0 31.69 21.2 7.37 0.35 15 314 10 0.31 1033.86 0 3/4/17 11:59:26 51.69 781.25 126.91 703.913 1241.38
3/4/17 13:00:00 Partly Cloudy partly-cloudy-day 0 0 32.81 22.51 5.76 0.31 15.34 309 10 0.43 1033.19 0 3/4/17 12:59:22 55.68 1049.8 131.25 470.353 829.49
3/4/17 14:00:00 Partly Cloudy partly-cloudy-day 0 0 33.63 23.97 5.46 0.3 14.2 317 10 0.31 1032.6 0 3/4/17 13:59:19 58.1 952.148 127.17 392.246 691.745
3/4/17 15:00:00 Partly Cloudy partly-cloudy-day 0 0 34.19 23.13 4.36 0.28 19.03 314 10 0.27 1032.5 0 3/4/17 14:59:16 51.46 659.18 129.8 339.07 613.116
3/4/17 16:00:00 Partly Cloudy partly-cloudy-day 0 0 33.6 23.04 4.36 0.28 16.81 331 10 0.27 1032.6 0 3/4/17 15:59:12 54.95 463.867 126.91 25.5895 48.1296
3/4/17 17:00:00 Clear clear-day 0 0 32.22 21.19 2.61 0.28 16.96 327 10 0.21 1033.27 0 3/4/17 16:59:08 35.94 0 115.61 163.427 285.494
3/4/17 18:00:00 Clear clear-night 0 0 29.91 19.73 2.67 0.31 12.97 341 10 0.08 1034.15 0 3/4/17 17:59:05 33.13 0 84.48 0 0
3/4/17 19:00:00 Clear clear-night 0 0 28.22 18.72 2.84 0.33 10.58 349 10 0 1034.79 0 3/4/17 18:59:01 31.83 0 0 49.6979 0.46347
3/4/17 20:00:00 Clear clear-night 0 0 26.2 16.32 2.82 0.36 10.39 353 10 0 1035.65 0 3/4/17 19:58:57 29.36 0 0.13 76.4028 0.71251
3/4/17 21:00:00 Clear clear-night 0 0 24.63 13.82 0.8 0.35 11.4 359 10 0.08 1036.41 0 3/4/17 20:58:53 29.3 0 0 0 0
3/4/17 22:00:00 Clear clear-night 0 0 22.84 11.48 0.31 0.37 11.58 353 10 0 1037.06 0 3/4/17 21:58:50 25.42 0 0 25.0141 0.23327
3/4/17 23:00:00 Clear clear-night 0 0 20.8 9.58 -2.29 0.35 10.44 347 10 0 1037.42 0 3/4/17 22:58:46 24.18 0 0.26 0 0
3/5/17 00:00:00 Clear clear-night 0 0 19.43 6.95 -3.1 0.36 12.04 342 10 0 1037.91 0 3/4/17 23:58:42 22.89 0 0 289.863 2.7032
3/5/17 01:00:00 Clear clear-night 0 0 17.95 5.88 -3.04 0.39 10.68 340 10 0 1038.44 0 3/5/17 00:58:38 21.09 0 0.13 65.0545 0.60668
3/5/17 02:00:00 Clear clear-night 0 0 16.92 5.15 -3.84 0.39 9.82 344 10 0 1038.8 0 3/5/17 01:58:34 19.96 0 0 208.739 1.9466
3/5/17 03:00:00 Clear clear-night 0 0 16.04 4.3 -3.19 0.42 9.47 334 10 0 1039.08 0 3/5/17 02:58:30 19.91 0 0 0 0
3/5/17 04:00:00 Clear clear-night 0 0 15.54 4.11 -1.6 0.46 8.9 329 10 0 1039.29 0 3/5/17 03:58:26 20.07 0 0 0 0
3/5/17 05:00:00 Clear clear-night 0 0 15.01 3.37 -1 0.48 9.01 330 10 0 1039.59 0 3/5/17 04:58:22 20.24 0 0 11.8254 0.11028
3/5/17 06:00:00 Clear clear-night 0 0 14.74 3.84 -0.36 0.5 7.99 339 10 0 1039.65 0 3/5/17 05:58:20 19.34 0 4.99 109.401 3.0517
3/5/17 07:00:00 Clear clear-day 0 0 15.23 3.74 -0.08 0.5 8.87 348 10 0 1039.8 0 3/5/17 06:58:14 18.84 48.8281 120.87 388.144 729.055
3/5/17 08:00:00 Clear clear-day 0 0 17.91 6.23 -1.11 0.42 10.05 348 10 0 1039.95 0 3/5/17 07:58:10 20.52 0 120.87 283.78 530.138
3/5/17 09:00:00 Clear clear-day 0 0 20.68 10.5 -2.89 0.35 8.77 349 10 0.08 1039.85 0 3/5/17 08:58:06 46.01 634.766 129.54 342.721 569.473
3/5/17 10:00:00 Clear clear-day 0 0 24.28 15.89 -3.26 0.29 7.38 336 10 0.08 1039.91 0 3/5/17 09:58:03 56.02 854.492 127.17 555.511 970.009
3/5/17 11:00:00 Clear clear-day 0 0 27.85 19.44 -4.4 0.24 8.55 6 10 0.08 1039.31 0 3/5/17 10:58:00 66.71 1000.98 124.94 616.366 1050.52
3/5/17 12:00:00 Clear clear-day 0 0 30.57 22.98 -5.64 0.2 8.2 352 10 0.08 1038.07 0 3/5/17 11:57:55 68.17 1000.98 123.23 309.821 528.055
3/5/17 13:00:00 Clear clear-day 0 0 33.28 25.89 -4.47 0.19 8.91 324 10 0.08 1037.13 0 3/5/17 12:57:57 72.84 976.562 122.58 356.941 608.364
3/5/17 14:00:00 Clear clear-day 0 0 34.7 27.72 -5.81 0.17 8.74 329 10 0.08 1035.72 0 3/5/17 13:57:49 71.77 805.664 121.92 358.533 619.742
3/5/17 15:00:00 Clear clear-day 0 0 35.85 30.55 -5.01 0.17 6.38 321 10 0.08 1034.6 0 3/5/17 14:57:45 70.19 634.766 123.23 188.637 332.671
3/5/17 16:00:00 Clear clear-day 0 0 36.78 30.38 -5.24 0.16 8.52 309 10 0.08 1033.96 0 3/5/17 15:57:42 62.49 537.109 125.6 382.288 709.099
3/5/17 17:00:00 Clear clear-day 0 0 36.46 31.73 -3.61 0.17 5.75 308 10 0.08 1033.86 0 3/5/17 16:57:38 37.12 0 114.04 0 0
3/5/17 18:00:00 Clear clear-night 0 0 34.48 29.89 -1.93 0.2 5.11 298 10 0.08 1034.15 0 3/5/17 17:57:35 36.05 0 89.07 0 0
3/5/17 19:00:00 Clear clear-night 0 0 32.52 27.58 1.36 0.26 5.12 285 10 0.08 1034.4 0 3/5/17 18:57:31 34.7 0 0.26 0 0
3/5/17 20:00:00 Clear clear-night 0 0 30.89 24.37 5.07 0.33 6.7 269 10 0 1034.61 0 3/5/17 20:02:27 33.74 0 0.13 0 0
3/5/17 21:00:00 Clear clear-night 0 0 29.91 23.79 7.99 0.39 5.94 277 10 0 1034.61 0 3/5/17 21:02:24 32.39 0 0 0 0
3/5/17 22:00:00 Clear clear-night 0 0 28.47 24.78 8.24 0.42 3.39 293 10 0 1034.78 0 3/5/17 22:02:20 32.28 0 0.13 0 0
3/5/17 23:00:00 Clear clear-night 0 0 27.15 22.62 9.83 0.47 3.88 302 10 0.08 1034.84 0 3/5/17 23:02:16 32.68 0 0 109.951 1.0254
3/6/17 00:00:00 Clear clear-night 0 0 26.45 26.45 8.98 0.47 1.53 225 10 0.08 1034.42 0 3/6/17 00:02:13 31.61 0 0 0 0
3/6/17 01:00:00 Clear clear-night 0 0 25.52 25.52 10.82 0.53 2.4 249 10 0.08 1033.99 0 3/6/17 01:02:09 30.93 0 0 275.755 2.5716
3/6/17 02:00:00 Clear clear-night 0 0 24.84 18.98 12.2 0.58 4.71 277 9.95 0.09 1033.85 0 3/6/17 02:02:05 29.24 0 0 0 0
3/6/17 03:00:00 Clear clear-night 0 0 24.31 24.31 12.45 0.6 2.22 27 9.95 0.08 1033.49 0 3/6/17 02:59:41 28.96 0 0 0 0
3/6/17 04:00:00 Clear clear-night 0 0 24.28 24.28 13.7 0.63 1.87 354 9.95 0.11 1033.47 0 3/6/17 03:59:37 29.02 0 0 447.981 4.1777
3/6/17 05:00:00 Clear clear-night 0 0 23.49 23.49 13.12 0.64 2.93 39 9.95 0.09 1033.77 0 3/6/17 04:59:38 29.86 0 0 140.327 1.3086
3/6/17 06:00:00 Clear clear-night 0 0 24.04 24.04 14.49 0.66 2.89 39 9.87 0.02 1034.08 0 3/6/17 05:59:29 29.81 0 8.8 147.97 5.5035
3/6/17 07:00:00 Clear clear-day 0 0 25.62 25.62 15.75 0.66 1.87 51 9.82 0.2 1034.11 0 3/6/17 06:59:26 31.49 48.8281 120.34 296.192 554.341
3/6/17 08:00:00 Clear clear-day 0 0 31.22 27.9 14.07 0.48 3.4 117 9.88 0 1034.21 0 3/6/17 07:59:22 33.18 0 121.26 537.924 1003.01
3/6/17 09:00:00 Clear clear-day 0 0 35.09 31.41 9.79 0.34 4.24 147 9.87 0.07 1034.01 0 3/6/17 08:59:18 50.34 634.766 126.39 277 453.355
3/6/17 10:00:00 Clear clear-day 0 0 38.21 34.91 7.25 0.27 4.37 166 10 0.02 1033.87 0 3/6/17 09:59:15 51.07 805.664 124.94 396.977 686.194
3/6/17 11:00:00 Clear clear-day 0 0 41.1 37.46 7.96 0.25 5.43 169 10 0.17 1033.44 0 3/6/17 10:59:11 55.46 952.148 123.23 367.018 625.54
3/6/17 12:00:00 Clear clear-day 0 0 43.69 39.48 10.61 0.25 7.2 173 10 0.22 1032.68 0 3/6/17 11:59:08 58.83 732.422 123.1 523.77 905.362
3/6/17 13:00:00 Partly Cloudy partly-cloudy-day 0 0 45.95 42.78 13.4 0.26 6.1 193 10 0.53 1031.52 0 3/6/17 12:59:08 56.92 537.109 124.15 425.372 735.276
3/6/17 14:00:00 Clear clear-day 0 0 47.67 44.87 16.08 0.28 6.03 195 10 0 1030.67 0 3/6/17 13:59:01 56.19 317.383 122.05 295.198 510.263
3/6/17 15:00:00 Clear clear-day 0 0 49.05 46.02 17.52 0.28 7.06 180 10 0.11 1030.12 0 3/6/17 14:58:58 72.61 585.938 121.52 367.517 648.134
3/6/17 16:00:00 Clear clear-day 0 0 48.74 45.69 18.88 0.3 6.95 175 10 0.08 1029.75 0 3/6/17 15:58:56 56.92 195.312 123.36 201.728 370.164
3/6/17 17:00:00 Clear clear-day 0 0 47.93 45.14 20.29 0.33 6.1 181 10 0.22 1029.63 0 3/6/17 16:58:52 49.72 24.4141 116.27 182.706 338.767
3/6/17 18:00:00 Partly Cloudy partly-cloudy-night 0 0 46.31 43.57 21.12 0.36 5.49 177 10 0.31 1029.88 0 3/6/17 17:58:53 48.54 0 59.51 94.3191 98.7989
3/6/17 19:00:00 Overcast cloudy 0 0 45.13 41.47 21.92 0.39 6.71 188 10 1 1030.22 0 3/6/17 18:58:45 47.75 0 1.05 0 0
3/6/17 20:00:00 Clear clear-night 0 0 43.59 39.58 23.63 0.45 6.8 181 10 0 1030.26 0 3/6/17 19:58:41 44.49 0 0 57.0983 0.53248
3/6/17 21:00:00 Clear clear-night 0 0 42.24 38.45 26.17 0.53 5.95 176 10 0 1030.24 0 3/6/17 20:58:39 43.25 0 0.26 0 0
3/6/17 22:00:00 Clear clear-night 0 0 42.06 39.05 27.93 0.57 4.78 170 10 0 1030 0 3/6/17 21:58:39 42.52 0 0.79 76.3177 0.71172
3/6/17 23:00:00 Clear clear-night 0 0 41.96 39.44 29.58 0.61 4.16 163 10 0 1029.49 0 3/6/17 22:58:31 42.69 0 0.66 0 0
3/7/17 00:00:00 Clear clear-night 0 0 42.01 39.42 30.93 0.65 4.26 159 10 0 1028.9 0 3/6/17 23:58:28 42.63 0 1.18 0 0
3/7/17 01:00:00 Overcast cloudy 0 0 42.27 39.79 31.54 0.65 4.17 146 10 1 1028.43 0 3/7/17 00:58:24 43.25 0 0.92 64.6642 0.60304
3/7/17 02:00:00 Clear clear-night 0 0 42 39.71 32.37 0.68 3.92 116 10 0 1028.02 0 3/7/17 01:58:20 43.42 0 0.26 0 0
3/7/17 03:00:00 Clear clear-night 0 0 41.77 39.42 34.15 0.74 3.94 100 9.95 0 1027.22 0 3/7/17 02:58:17 44.15 0 0 34.3664 0.32049
3/7/17 04:00:00 Clear clear-night 0.0022 0.06 41.15 38.75 35.86 0.81 3.89 88 10 0 1026.8 0 3/7/17 03:58:14 43.87 0 0.66 56.2317 0.5244
3/7/17 05:00:00 Clear clear-night 0 0 41.46 39.28 36.62 0.83 3.7 91 9.95 0 1026.65 0 3/7/17 04:58:10 44.54 0 0 0 0
3/7/17 06:00:00 Partly Cloudy partly-cloudy-night 0 0 41.9 40.01 37.19 0.83 3.47 124 9.95 0.31 1026.71 0 3/7/17 05:58:07 44.6 0 2.89 0 0
3/7/17 07:00:00 Overcast cloudy 0.0038 0.14 42.95 42.95 38.39 0.84 2.29 102 9.38 1 1026.63 0 3/7/17 06:58:03 46.46 0 109.96 17.4545 32.3761
3/7/17 08:00:00 Light Rain rain 0.016 0.57 43.69 43.69 39.41 0.85 2.11 63 8.24 0 1026.63 0 3/7/17 07:58:00 47.19 0 113.12 232.862 434.193
3/7/17 09:00:00 Light Rain rain 0.0128 0.54 44.42 44.42 41.19 0.88 2.66 91 7.38 0.31 1026.36 0 3/7/17 08:58:02 47.47 0 117.85 316.15 517.431
3/7/17 10:00:00 Light Rain rain 0.0138 0.55 45.93 44.39 43.47 0.91 3.73 106 7.62 0.31 1025.42 0 3/7/17 09:57:53 48.43 24.4141 120.47 153.895 262.296
3/7/17 11:00:00 Partly Cloudy partly-cloudy-day 0.0032 0.11 49.81 49.81 45.83 0.86 2.68 152 9.33 0.31 1024.42 0 3/7/17 11:00:51 52.93 73.2422 120.87 76.5477 130.467
3/7/17 12:00:00 Partly Cloudy partly-cloudy-day 0.0018 0.04 53.39 53.39 47.3 0.8 3.43 212 9.59 0.31 1023.55 0 3/7/17 12:00:48 57.31 48.8281 119.16 290.088 501.431
3/7/17 13:00:00 Mostly Cloudy partly-cloudy-day 0 0 57.91 57.91 48.51 0.71 8.75 213 9.59 0.85 1022.26 0 3/7/17 13:00:45 66.37 268.555 120.34 254.614 433.961
3/7/17 14:00:00 Partly Cloudy partly-cloudy-day 0 0 61.19 61.19 48.7 0.63 12.75 217 9.76 0.28 1021.1 0 3/7/17 14:00:42 68.84 219.727 119.55 6.5634 11.3451
3/7/17 15:00:00 Partly Cloudy partly-cloudy-day 0 0 63.2 63.2 48.79 0.59 13.36 212 9.82 0.31 1020.57 0 3/7/17 15:00:39 66.48 97.6563 119.42 266.06 469.209
3/7/17 16:00:00 Clear clear-day 0 0 63.86 63.86 48.78 0.58 8.79 216 9.82 0.19 1019.98 0 3/7/17 16:00:36 65.75 0 113.38 353.289 638.826
3/7/17 17:00:00 Clear clear-day 0 0 64.07 64.07 48.59 0.57 10.38 211 9.82 0 1019.45 0 3/7/17 17:00:33 65.47 0 112.85 253.805 472.861
3/7/17 18:00:00 Clear clear-night 0 0 62.92 62.92 48.39 0.59 8.94 204 9.82 0.22 1019.18 0 3/7/17 18:00:30 64.12 0 65.3 0 0
3/7/17 19:00:00 Overcast cloudy 0 0 62.72 62.72 48.22 0.59 9.29 197 10 1 1019.36 0 3/7/17 19:00:27 64.34 0 0.39 41.2417 0.38461
3/7/17 20:00:00 Clear clear-night 0 0 62.39 62.39 48.67 0.61 10.22 210 10 0 1019.46 0 3/7/17 20:00:23 63.61 0 0.26 43.0177 0.40117
3/7/17 21:00:00 Partly Cloudy partly-cloudy-night 0 0 61.21 61.21 49.14 0.64 8.7 211 10 0.31 1018.98 0 3/7/17 21:00:20 62.32 0 0.26 0 0
3/7/17 22:00:00 Clear clear-night 0 0 60 60 49.01 0.67 8.33 202 10 0 1018.08 0 3/7/17 22:00:18 61.19 0 0 54.3131 0.50651
3/7/17 23:00:00 Partly Cloudy partly-cloudy-night 0 0 58.16 58.16 49.5 0.73 8.28 198 10 0.31 1017.29 0 3/7/17 23:00:14 58.72 0 0.66 30.841 0.28761
3/8/17 00:00:00 Clear clear-night 0 0 56.56 56.56 49.35 0.77 8.97 191 10 0 1016.23 0 12.0875 0.11272
3/8/17 01:00:00 Mostly Cloudy partly-cloudy-night 0 0 57.07 57.07 49.64 0.76 10.95 194 10 0.89 1015.05 0 0 0
3/8/17 02:00:00 Partly Cloudy partly-cloudy-night 0 0 57.63 57.63 49.78 0.75 12.46 203 10 0.31 1013.96 0 24.9796 0.23295
3/8/17 03:00:00 Partly Cloudy partly-cloudy-night 0 0 58.46 58.46 50.51 0.75 13.15 203 10 0.31 1012.79 0 0 0
3/8/17 04:00:00 Partly Cloudy partly-cloudy-night 0 0 59.02 59.02 50.87 0.74 12.23 215 9.77 0.31 1012.33 0 0 0
3/8/17 05:00:00 Drizzle and Breezy rain 0.0083 0.43 53.36 53.36 46.92 0.79 19.03 302 9.12 0 1013.54 0 3/8/17 05:00:10 59.56 0 0.92 65.542 0.61123
3/8/17 06:00:00 Drizzle rain 0.0062 0.29 49.43 44.75 41.84 0.75 11.87 316 9.89 0 1016.35 0 3/8/17 06:00:07 51.8 0 2.23 113.653 8.4542
3/8/17 07:00:00 Mostly Cloudy partly-cloudy-day 0 0 48.35 44.03 39.79 0.72 9.92 296 10 0.89 1017.02 0 3/8/17 07:00:04 51.07 0 88.68 601.216 1121.02
3/8/17 08:00:00 Partly Cloudy partly-cloudy-day 0 0 48.12 43.29 38.27 0.69 11.28 288 10 0.31 1018.64 0 3/8/17 08:00:00 50.45 0 115.09 373.508 697.762
3/8/17 09:00:00 Partly Cloudy partly-cloudy-day 0 0 49.26 44.53 36.62 0.62 11.83 294 10 0.31 1018.76 0 3/8/17 08:59:57 59 292.969 120.21 0 0
3/8/17 10:00:00 Partly Cloudy partly-cloudy-day 0.0015 0.03 51.93 51.93 34.85 0.52 12.87 283 10 0.29 1018.59 0 3/8/17 09:59:54 73.01 854.492 122.84 396.131 675.159
3/8/17 11:00:00 Clear clear-day 0.0015 0.03 54.85 54.85 29.25 0.37 14.08 283 10 0.12 1018.42 0 3/8/17 10:59:51 82.4 976.562 119.82 472.965 797.565
3/8/17 12:00:00 Clear clear-day 0 0 57.27 57.27 24.83 0.28 16.8 279 10 0.08 1017.83 0 3/8/17 11:59:48 90.61 1025.39 119.69 685.423 1184.79
3/8/17 13:00:00 Clear clear-day 0 0 58.37 58.37 23.59 0.26 15.69 275 10 0.08 1016.48 0 3/8/17 12:59:45 92.36 1000.98 118.24 288.678 492.018
3/8/17 14:00:00 Clear clear-day 0 0 59.99 59.99 23.44 0.24 16.15 259 10 0.21 1015.29 0 3/8/17 13:59:42 79.64 73.2422 107.6 721.64 1247.39
3/8/17 15:00:00 Clear clear-day 0 0 60.91 60.91 22.4 0.23 18.05 265 10 0.15 1014.59 0 3/8/17 14:59:39 84.93 610.352 120.74 588.458 1027.54
3/8/17 16:00:00 Clear clear-day 0 0 61.61 61.61 21.43 0.21 20.53 252 10 0.08 1014.1 0 3/8/17 15:59:36 77.56 292.969 120.74 248.042 451.095
3/8/17 17:00:00 Clear clear-day 0 0 61.53 61.53 20.75 0.21 17.64 248 10 0.08 1013.73 0 3/8/17 16:59:33 62.04 0 108.12 135.732 254.142
3/8/17 18:00:00 Clear clear-night 0 0 59.93 59.93 21.11 0.22 13.25 229 10 0.08 1013.63 0 3/8/17 17:59:30 60.63 0 84.61 190.044 227.01
3/8/17 19:00:00 Clear clear-night 0 0 57.68 57.68 22.25 0.25 9.99 219 10 0 1013.76 0 3/8/17 18:59:27 58.04 0 0.13 0 0
3/8/17 20:00:00 Clear clear-night 0 0 56.31 56.31 22.72 0.27 9.79 232 10 0 1014.08 0 3/8/17 19:59:23 56.24 0 0 0 0
3/8/17 21:00:00 Clear clear-night 0 0 55.54 55.54 22.51 0.27 11.7 236 10 0 1014.88 0 3/8/17 20:59:20 54.16 0 0 199.736 1.8627
3/8/17 22:00:00 Clear clear-night 0 0 55.41 55.41 20.09 0.25 14.77 243 10 0 1015.59 0 3/8/17 21:59:22 53.21 0 0.39 0 0
3/8/17 23:00:00 Clear clear-night 0 0 56.29 56.29 19.42 0.23 14.71 248 10 0 1015.56 0 3/8/17 22:59:17 56.53 0 0 83.5525 0.77919
3/9/17 00:00:00 Clear clear-night 0 0 55.26 55.26 19.78 0.25 13.54 247 10 0 1015.52 0 3/8/17 23:59:11 55.96 0 0
3/9/17 01:00:00 Clear clear-night 0 0 54.46 54.46 19.92 0.26 14.06 251 10 0 1015.87 0 3/9/17 00:59:07 55.4 0 0
3/9/17 02:00:00 Clear clear-night 0 0 53.86 53.86 20.35 0.27 13.09 258 10 0 1016.05 0 3/9/17 01:59:04 54.11 0 0.13 1.1017 0.010274
3/9/17 03:00:00 Clear clear-night 0 0 52.63 52.63 20.9 0.29 10.93 259 10 0 1015.71 0 3/9/17 02:59:09 52.53 0 0 225.793 2.1057
3/9/17 04:00:00 Clear clear-night 0 0 52.04 52.04 20.75 0.29 10.55 256 10 0 1015.99 0 3/9/17 03:58:58 52.25 0 0 174.764 1.6298
3/9/17 05:00:00 Clear clear-night 0 0 50.25 50.25 22.15 0.33 8.17 248 10 0 1016.4 0 3/9/17 04:58:54 52.03 0 0 0 0
3/9/17 06:00:00 Clear clear-night 0 0 49.27 45.95 22.48 0.35 7.84 239 10 0 1016.58 0 3/9/17 05:58:51 50.73 0 14.19 23.2329 1.5122
3/9/17 07:00:00 Clear clear-day 0 0 50 46.81 23.53 0.35 7.87 237 10 0.08 1017.16 0 3/9/17 06:58:48 50.79 122.07 116.53 99.4383 186.484
3/9/17 08:00:00 Clear clear-day 0 0 53.76 53.76 23.57 0.31 11.2 244 10 0.08 1017.25 0 3/9/17 07:58:50 52.98 0 112.59 534.345 991.148
3/9/17 09:00:00 Clear clear-day 0 0 57.06 57.06 23.19 0.27 16.55 263 10 0 1017.21 0 3/9/17 08:58:41 72.39 659.18 121.79 757.395 1239.6
3/9/17 10:00:00 Clear clear-day 0 0 59.09 59.09 22.7 0.24 19.86 276 10 0 1017.12 0 3/9/17 09:58:38 74.64 830.078 121.52 450.84 749.126
3/9/17 11:00:00 Clear clear-day 0 0 60.86 60.86 22.76 0.23 18.71 269 10 0 1016.58 0 3/9/17 10:58:35 83.97 952.148 120.47 761.061 1283.38
3/9/17 12:00:00 Clear clear-day 0 0 62.34 62.34 22.44 0.21 19 279 10 0 1015.92 0 3/9/17 11:58:45 96.8 976.562 118.37 898.616 1531.59
3/9/17 13:00:00 Clear clear-day 0 0 63.58 63.58 23.13 0.21 20.24 269 10 0 1014.97 0 3/9/17 12:58:29 92.92 903.32 118.63 507.784 865.459
3/9/17 14:00:00 Clear clear-day 0 0 64.88 64.88 23.43 0.2 17.51 274 10 0 1014.43 0 3/9/17 13:58:27 94.44 781.25 119.69 226.357 403.078
3/9/17 15:00:00 Clear clear-day 0 0 65.41 65.41 23.28 0.2 17.94 272 10 0.1 1013.94 0 3/9/17 14:58:24 85.16 561.523 119.29 272.286 470.659
3/9/17 16:00:00 Clear clear-day 0 0 65.56 65.56 22.18 0.19 17.46 279 10 0.08 1013.49 0 3/9/17 15:58:21 84.43 341.797 119.55 85.8874 151.467
3/9/17 17:00:00 Clear clear-day 0 0 64.7 64.7 21.99 0.19 16.03 280 10 0.09 1013.47 0 3/9/17 16:58:18 65.97 0 110.88 0 0
3/9/17 18:00:00 Clear clear-night 0 0 62.4 62.4 22.43 0.21 9.26 288 10 0.18 1013.72 0 3/9/17 17:58:15 63.16 0 83.03 0 0
3/9/17 19:00:00 Partly Cloudy partly-cloudy-night 0 0 60.1 60.1 22.39 0.23 5 305 10 0.54 1014.08 0 3/9/17 18:58:12 62.6 0 0.26 98.5287 0.91885
3/9/17 20:00:00 Clear clear-night 0 0 58.13 58.13 22.71 0.25 4.67 333 10 0 1014.49 0 3/9/17 19:58:09 61.03 0 0 259.352 2.4186
3/9/17 21:00:00 Partly Cloudy partly-cloudy-night 0 0 55.28 55.28 23.93 0.29 8.24 20 10 0.31 1014.69 0 3/9/17 20:58:07 60.41 0 0.39 0 0
3/9/17 22:00:00 Partly Cloudy partly-cloudy-night 0 0 51.65 51.65 23.07 0.32 7.44 19 10 0.31 1014.95 0 3/9/17 21:58:03 53.38 0 0.13 0 0
3/9/17 23:00:00 Clear clear-night 0 0 49.69 46.19 23.51 0.36 8.5 24 10 0 1014.83 0 3/9/17 22:57:59 52.47 0 0.26 354.591 3.3068
3/10/17 00:00:00 Partly Cloudy partly-cloudy-night 0 0 48.23 44.17 22.83 0.36 9.08 32 10 0.31 1014.42 0 3/9/17 23:57:56 50.56 0 0.13 396.154 3.6944
3/10/17 01:00:00 Mostly Cloudy partly-cloudy-night 0 0 46.38 42.44 24.25 0.41 7.81 36 10 0.82 1013.44 0 3/10/17 00:57:53 49.1 0 0 344.088 3.2089
3/10/17 02:00:00 Clear clear-night 0 0 45.69 41.46 27.33 0.48 8.12 31 10 0 1012.65 0 3/10/17 01:57:49 47.92 0 0.26 535.388 4.9929
3/10/17 03:00:00 Clear clear-night 0 0 44.34 39.38 29.34 0.55 9.11 24 10 0 1012.11 0 3/10/17 02:57:46 48.71 0 0.13 187.515 1.7487
3/10/17 04:00:00 Partly Cloudy partly-cloudy-night 0 0 42.68 38.09 28.95 0.58 7.52 27 10 0.31 1011.38 0 3/10/17 03:57:43 46.23 0 0.39 170.803 1.5929
3/10/17 05:00:00 Partly Cloudy partly-cloudy-night 0 0 41.56 36.64 28.19 0.59 7.7 33 10 0.31 1010.31 0 3/10/17 04:57:39 45.28 0 0.66 105.438 0.98328
3/10/17 06:00:00 Clear clear-night 0 0 40.69 36.11 29.35 0.64 6.76 20 8.43 0.2 1011.1 0 3/10/17 05:57:36 45.05 0 1.71 0 0
3/10/17 07:00:00 Mostly Cloudy partly-cloudy-day 0.0048 0.2 37.61 30.16 32.33 0.81 11.19 36 5.2 0.88 1010.43 0 3/10/17 06:57:32 41.28 0 89.47 0 0
3/10/17 08:00:00 Light Rain rain 0.0247 0.64 34.49 27.22 33.38 0.96 9.2 26 1.69 0 1010.5 0 3/10/17 07:57:29 39.93 0 102.34 0 0
3/10/17 09:00:00 Light Snow snow 0.0167 0.58 33.24 25.82 32.21 0.96 8.94 3 0.76 0 1010.59 0 3/10/17 09:02:25 37.57 0 112.59 250.491 416.221
3/10/17 10:00:00 Snow snow 0.0348 0.68 32.8 24.38 31.4 0.94 10.69 2 0.93 0 1010.56 0 3/10/17 10:02:22 37.91 0 116.53 335.6 565.926
3/10/17 11:00:00 Light Snow snow 0.019 0.6 32.12 23.11 30.73 0.95 11.61 359 0.48 0 1011.48 0 3/10/17 10:02:22 37.91 0 116.53 0 0
3/10/17 12:00:00 Light Snow snow 0.0169 0.58 32.19 23.64 30.1 0.92 10.65 352 1.13 0 1011.75 0 3/10/17 12:02:04 35.21 0 121.79 329.437 569.448
3/10/17 13:00:00 Light Snow snow 0.0066 0.31 33.22 25.11 28.95 0.84 10.25 336 8.03 0.81 1011.22 0 3/10/17 12:57:40 40.1 48.8281 128.88 566.994 980.077
3/10/17 14:00:00 Light Rain rain 0.0133 0.55 35.29 27.57 27.93 0.74 10.52 332 9.91 0.31 1010.84 0 3/10/17 13:57:36 54.56 122.07 116.53 373.498 671.426
3/10/17 15:00:00 Partly Cloudy partly-cloudy-day 0.003 0.1 36.13 28.28 26.8 0.69 11.26 306 9.23 0.29 1010.78 0 3/10/17 14:57:33 69.24 634.766 123.76 96.0333 169.359
3/10/17 16:00:00 Partly Cloudy partly-cloudy-day 0.0017 0.04 34.85 25.72 28.7 0.78 13.64 309 5.4 0.31 1011.19 0 3/10/17 16:02:29 47.53 48.8281 122.97 221.55 390.713
3/10/17 17:00:00 Partly Cloudy partly-cloudy-day 0 0 33.85 24.31 28.7 0.81 14.04 309 6.27 0.31 1012.06 0 3/10/17 17:02:26 40.16 0 64.11 0 0
3/10/17 18:00:00 Partly Cloudy partly-cloudy-night 0 0 33.17 24.8 27.01 0.78 10.77 312 8.84 0.3 1012.99 0 3/10/17 18:02:22 37.96 0 87.37 0 0
3/10/17 19:00:00 Partly Cloudy partly-cloudy-night 0 0 32.75 23.13 22.5 0.66 13.46 308 8.8 0.25 1014.1 0 3/10/17 19:02:18 35.77 0 0.13 0 0
3/10/17 20:00:00 Clear clear-night 0 0 31.77 21.3 20.42 0.62 14.98 323 9.39 0.24 1015.48 0 3/10/17 20:02:15 35.71 0 1.71 0 0
3/10/17 21:00:00 Clear clear-night 0 0 30.06 18.59 15.12 0.53 16.43 320 9.61 0.21 1016.85 0 3/10/17 21:02:11 34.76 0 0.79 15.6426 0.14588
3/10/17 22:00:00 Partly Cloudy partly-cloudy-night 0 0 28.51 17.83 14.81 0.56 13.25 319 10 0.26 1018.11 0 3/10/17 22:02:13 32.51 0 0 31.0992 0.29002
3/10/17 23:00:00 Clear clear-night 0 0 27.56 15.6 8.76 0.44 15.76 313 9.92 0.2 1018.76 0 3/10/17 23:02:04 29.19 0 0 20.1236 0.18767
3/11/17 00:00:00 Clear clear-night 0 0 25.55 12.99 6.37 0.43 15.84 318 9.76 0.22 1019.42 0 3/11/17 00:02:00 27.16 0 0.66 0 0
3/11/17 01:00:00 Clear clear-night 0 0 23.64 10.32 4.59 0.43 16.36 320 10 0.15 1020.09 0 3/11/17 01:01:59 28.46 0 0.39 0 0
3/11/17 02:00:00 Clear clear-night 0 0 22.01 8.7 2.46 0.42 15.2 326 10 0.14 1020.6 0 3/11/17 02:01:52 25.36 0 0 0 0
3/11/17 03:00:00 Clear clear-night 0 0 20.86 7.78 0.44 0.4 14 320 10 0.04 1020.75 0 3/11/17 03:01:53 24.35 0 0 0 0
3/11/17 04:00:00 Clear clear-night 0 0 19.96 7.34 -0.39 0.4 12.55 321 10 0 1021.36 0 3/11/17 04:01:45 22.77 0 0 0 0
3/11/17 05:00:00 Clear clear-night 0 0 19.2 7.46 -1.68 0.39 10.64 306 10 0 1022.24 0 3/11/17 05:01:41 22.66 0 0 0 0
3/11/17 06:00:00 Clear clear-night 0 0 18.81 8.62 -1.67 0.4 8.22 295 10 0 1023.34 0 3/11/17 06:01:37 20.52 0 47.69 372.662 38.1163
3/11/17 07:00:00 Clear clear-day 0 0 19.72 9.6 0.13 0.42 8.38 291 10 0.08 1024.07 0 3/11/17 07:01:33 23 170.898 125.2 204.188 375.435
3/11/17 08:00:00 Clear clear-day 0 0 21.47 9.41 1.98 0.42 12.25 291 10 0.09 1024.42 0 3/11/17 08:01:29 26.04 0 119.03 291.18 546.862
3/11/17 09:00:00 Partly Cloudy partly-cloudy-day 0 0 23.19 10.28 2.93 0.41 15.06 295 10 0.28 1024.56 0 3/11/17 09:01:25 35.88 756.836 130.59 0 0
3/11/17 10:00:00 Partly Cloudy partly-cloudy-day 0 0 24.44 11.41 3.85 0.4 16.22 302 10 0.31 1024.22 0 3/11/17 10:01:21 35.71 73.2422 122.97 0 0
3/11/17 11:00:00 Partly Cloudy partly-cloudy-day 0 0 25.83 13.34 4.34 0.39 15.88 306 10 0.31 1023.95 0 3/11/17 11:01:18 38.81 537.109 129.8 166.134 290.095
3/11/17 12:00:00 Partly Cloudy partly-cloudy-day 0 0 27.07 14.61 4.14 0.37 16.75 298 10 0.31 1023.49 0 3/11/17 12:01:14 60.07 1196.29 127.17 381.388 672.595
3/11/17 13:00:00 Partly Cloudy partly-cloudy-day 0 0 27.83 16.19 4.15 0.36 15.14 291 10 0.59 1023.22 0 3/11/17 13:01:10 38.86 195.312 125.73 242.231 412.855
3/11/17 14:00:00 Partly Cloudy partly-cloudy-day 0 0 29.11 17.37 5.62 0.36 16.41 287 10 0.31 1022.63 0 3/11/17 14:01:07 38.08 146.484 124.02 219.481 399.154
3/11/17 15:00:00 Partly Cloudy partly-cloudy-day 0 0 29.67 17.68 5.56 0.35 17.6 291 10 0.31 1022.66 0 3/11/17 15:01:03 33.07 48.8281 125.33 129.987 224.688
3/11/17 16:00:00 Partly Cloudy partly-cloudy-day 0 0 29.88 18.99 5.22 0.34 14.7 291 10 0.29 1022.81 0 3/11/17 16:00:59 50.17 366.211 129.01 0 0
3/11/17 17:00:00 Partly Cloudy partly-cloudy-day 0 0 29.64 18.15 4.64 0.34 16.11 295 10 0.31 1023.1 0 3/11/17 17:00:56 32.68 0 117.19 35.2213 63.2496
3/11/17 18:00:00 Partly Cloudy partly-cloudy-night 0 0 28.52 17.62 4.67 0.35 13.8 293 10 0.25 1023.3 0 3/11/17 18:00:52 30.03 0 92.23 0 0
3/11/17 19:00:00 Clear clear-night 0 0 27.79 17.6 5.51 0.38 11.77 301 10 0.14 1024.02 0 3/11/17 19:00:48 29.19 0 0 66.2679 0.618
3/11/17 20:00:00 Clear clear-night 0 0 27.31 17.03 5.81 0.39 11.7 296 10 0.02 1024.7 0 3/11/17 20:00:45 28.79 0 0.39 202.014 1.8839
3/11/17 21:00:00 Clear clear-night 0 0 26.44 15.05 5.2 0.4 13.61 301 10 0.14 1025.32 0 3/11/17 21:00:41 27.78 0 0 0 0
3/11/17 22:00:00 Clear clear-night 0 0 25.85 14.74 4.61 0.39 12.66 302 10 0.17 1026.01 0 3/11/17 22:00:37 26.54 0 0.53 0 0
3/11/17 23:00:00 Clear clear-night 0 0 25.34 14.85 4.28 0.4 11.13 298 10 0.18 1026.54 0 3/11/17 23:00:33 26.49 0 0.92 0 0
3/12/17 00:00:00 Clear clear-night 0 0 24.4 14.5 4.64 0.42 9.67 296 10 0.15 1026.72 0 3/12/17 00:00:29 27.05 0 0.92 401.139 3.7409
3/12/17 01:00:00 Clear clear-night 0 0 24.34 14.18 5.14 0.43 10.09 303 10 0.22 1027.03 0 3/12/17 01:00:31 25.76 0 0 139.212 1.2983
3/12/17 03:00:00 Clear clear-night 0 0 23.81 14.27 5.54 0.45 8.88 316 10 0.23 1027.05 0 3/12/17 03:00:25 28.4 0 0 9.3805 0.08748
3/12/17 04:00:00 Clear clear-night 0 0 23.5 13.77 5.73 0.46 9.07 327 10 0.02 1026.83 0 3/12/17 04:00:18 26.43 0 0 0 0
3/12/17 05:00:00 Clear clear-night 0 0 22.55 13.07 5.4 0.47 8.37 329 10 0 1026.78 0 3/12/17 05:00:14 28.29 0 0 0 0
3/12/17 06:00:00 Clear clear-night 0 0 21.99 13.9 5.19 0.48 6.46 325 10 0 1027.03 0 3/12/17 06:00:10 26.26 0 0 0 0
3/12/17 07:00:00 Clear clear-night 0 0 21.31 15.56 5.59 0.5 4.13 303 10 0 1027.3 0 3/12/17 07:00:07 25.76 0 43.75 247.768 458.603
3/12/17 08:00:00 Clear clear-day 0 0 21.77 15.45 6.32 0.51 4.66 288 10 0.08 1027.74 0 3/12/17 08:00:03 25.31 97.6563 124.15 334.982 630.164
3/12/17 09:00:00 Clear clear-day 0 0 24.63 17.1 7.1 0.47 6.4 295 10 0.08 1028.14 0 3/12/17 08:59:59 28.74 0 121.39 255.415 441.497
3/12/17 10:00:00 Clear clear-day 0 0 26.04 16.97 7.66 0.45 8.94 287 10 0.21 1028.35 0 3/12/17 09:59:55 35.49 732.422 129.28 330.234 576.64
3/12/17 11:00:00 Partly Cloudy partly-cloudy-day 0 0 27.56 17.59 8.4 0.44 11.21 304 10 0.28 1028.26 0 3/12/17 10:59:51 40.61 1049.8 127.44 276.523 482.852
3/12/17 12:00:00 Clear clear-day 0 0 28.06 18.3 8.82 0.44 11.02 297 10 0 1028.25 0 3/12/17 11:59:48 37.06 122.07 125.86 185.547 327.22
3/12/17 13:00:00 Clear clear-day 0 0 28.6 18.57 9.08 0.43 11.86 301 10 0 1027.85 0 3/12/17 12:59:44 34.98 146.484 127.31 505.218 873.294
3/12/17 14:00:00 Overcast cloudy 0 0 29.84 20.25 9.36 0.42 11.6 314 10 1 1027.04 0 3/12/17 13:59:46 42.8 219.727 126.39 470.796 863.896
3/12/17 15:00:00 Clear clear-day 0 0 30.47 20.17 9.98 0.42 13.59 313 10 0 1026.84 0 3/12/17 14:59:37 38.64 97.6563 125.2 443.777 774.905
3/12/17 16:00:00 Partly Cloudy partly-cloudy-day 0 0 31.05 21.19 9.96 0.41 12.91 309 10 0.31 1026.94 0 3/12/17 16:00:24 39.26 97.6563 125.86 116.041 202.626
3/12/17 17:00:00 Partly Cloudy partly-cloudy-day 0 0 31.81 22.04 9.48 0.39 13.18 302 10 0.31 1026.88 0 3/12/17 16:59:30 47.19 341.797 128.75 131.321 235.822
3/12/17 18:00:00 Clear clear-day 0 0 31.6 22.18 9.33 0.39 12.21 313 10 0.23 1027.06 0 3/12/17 17:59:26 37.34 0 118.37 54.2771 74.586
3/12/17 19:00:00 Clear clear-day 0 0 30.25 21.03 9.83 0.42 11.05 306 10 0.17 1027.7 0 3/12/17 18:59:22 34.14 0 95.91 0 0
3/12/17 20:00:00 Clear clear-night 0 0 29.07 21.57 10.41 0.45 7.55 311 10 0.08 1028.47 0 3/12/17 19:59:19 30.65 0 0 22.8298 0.2129
3/12/17 21:00:00 Clear clear-night 0 0 28.17 21.65 11.26 0.49 6.02 300 10 0.08 1029.5 0 3/12/17 20:59:20 29.41 0 0 55.3472 0.51615
3/12/17 22:00:00 Clear clear-night 0 0 27.52 20.91 12.28 0.52 5.98 301 10 0 1029.83 0 3/12/17 21:59:16 30.82 0 0.66 99.4484 0.92743
3/12/17 23:00:00 Clear clear-night 0 0 25.75 20.14 11.99 0.55 4.62 335 10 0.08 1029.99 0 3/12/17 22:59:08 29.75 0 0 0 0
3/13/17 00:00:00 Clear clear-night 0 0 25.06 18.35 9.96 0.52 5.59 343 10 0.08 1030.48 0 3/12/17 23:59:04 28.96 0 0.26 221.623 2.0668
3/13/17 01:00:00 Clear clear-night 0 0 24.31 16.11 7.58 0.48 7.15 5 10 0.08 1031.11 0 3/13/17 00:59:00 29.24 0 0.13 54.939 0.51235
3/13/17 02:00:00 Clear clear-night 0 0 23.64 16.21 6.27 0.47 6.07 356 10 0 1031.5 0 3/13/17 01:58:56 27.22 0 0.26 19.3982 0.1809
3/13/17 03:00:00 Clear clear-night 0 0 22.49 14.47 6.4 0.49 6.48 4 10 0.08 1031.87 0 3/13/17 02:58:53 27.56 0 0.13 53.0448 0.49468
3/13/17 04:00:00 Clear clear-night 0 0 20.96 14.86 6.78 0.54 4.36 3 10 0.08 1032.07 0 3/13/17 03:58:49 23.45 0 0.79 0 0
3/13/17 05:00:00 Clear clear-night 0 0 20.45 20.45 7.25 0.56 2.83 1 10 0 1031.99 0 3/13/17 04:58:45 23.73 0 0.26 193.133 1.8011
3/13/17 06:00:00 Clear clear-night 0 0 19.1 10.13 7.82 0.61 6.79 24 10 0.08 1032.56 0 3/13/17 05:58:46 23.62 0 0.13 353.29 68.9849
3/13/17 07:00:00 Clear clear-night 0 0 18.58 18.58 8.14 0.63 2.54 24 10 0.09 1033.23 0 3/13/17 06:58:37 22.72 0 50.32 0 0
3/13/17 08:00:00 Clear clear-day 0 0 20.42 14.82 9.74 0.63 3.92 35 9.94 0.19 1033.53 0 3/13/17 07:58:33 24.29 97.6563 123.5 864.295 1623.22
3/13/17 09:00:00 Clear clear-day 0 0 24.15 18.02 6.72 0.47 4.85 27 9.95 0 1034.03 0 3/13/17 08:58:30 29.19 317.383 128.36 389.952 687.699
3/13/17 10:00:00 Clear clear-day 0 0 25.36 21.37 6.73 0.44 3.28 15 10 0 1034.43 0 3/13/17 09:58:26 34.64 415.039 128.23 475.124 821.275
3/13/17 11:00:00 Clear clear-day 0 0 27.46 23.44 7 0.41 3.52 358 10 0 1033.8 0 3/13/17 10:58:23 46.29 781.25 125.47 817.679 1413.4
3/13/17 12:00:00 Clear clear-day 0 0 29.18 24.7 7.27 0.39 4.1 109 10 0.04 1032.64 0 3/13/17 11:58:19 53.21 878.906 123.5 474 827.68
3/13/17 13:00:00 Clear clear-day 0 0 31.64 31.64 6.6 0.34 2.26 119 10 0.02 1032.15 0 3/13/17 12:58:15 54.16 878.906 123.23 486.39 828.996
3/13/17 14:00:00 Clear clear-day 0 0 34.37 29.27 6.68 0.31 5.72 99 10 0.2 1030.73 0 3/13/17 13:58:11 48.59 781.25 123.36 594.723 1081.58
3/13/17 15:00:00 Clear clear-day 0 0 35.89 35.89 6.04 0.28 2.97 126 10 0 1029 0 3/13/17 14:58:08 54.39 268.555 119.69 104.592 182.633
3/13/17 16:00:00 Clear clear-day 0 0 37.63 33.59 6.78 0.27 5.12 121 10 0 1027.73 0 3/13/17 15:58:08 68.62 634.766 123.5 455.088 794.655
3/13/17 17:00:00 Clear clear-day 0 0 38.26 33.28 7.75 0.28 6.61 150 10 0.02 1026.82 0 3/13/17 16:58:04 52.76 366.211 126.65 14.1259 25.7982
3/13/17 18:00:00 Clear clear-day 0 0 37.34 32.3 7.95 0.29 6.42 152 10 0.2 1026.69 0 3/13/17 17:58:01 39.93 0 117.45 34.1935 49.4938
3/13/17 19:00:00 Clear clear-day 0 0 35.17 28.04 10.73 0.36 9.23 136 10 0 1026.45 0 3/13/17 18:57:59 37.29 0 71.86 71.6026 17.3103
3/13/17 20:00:00 Overcast cloudy 0 0 33.54 26.52 12.03 0.4 8.34 131 10 1 1026.66 0 3/13/17 19:57:50 35.15 0 1.05 0 0
3/13/17 21:00:00 Partly Cloudy partly-cloudy-night 0 0 32.29 25.35 13.92 0.46 7.75 99 9.56 0.31 1025.61 0 3/13/17 20:57:57 33.69 0 0.92 98.7003 0.92045
3/13/17 22:00:00 Clear clear-night 0 0 31.39 23.14 15.66 0.52 9.68 91 9.86 0 1024.94 0 3/13/17 21:57:43 32.62 0 1.05 0 0
3/13/17 23:00:00 Flurries snow 0.0029 0.09 30.22 22.86 20.47 0.67 7.71 58 5.68 0 1023.96 0 3/13/17 22:57:48 31.94 0 2.1 0 0
3/14/17 00:00:00 Light Snow snow 0.0143 0.56 28.04 18.91 25.42 0.9 9.84 43 0.88 0 1022.51 0 3/13/17 23:57:41 29.58 0 1.18 0 0
3/14/17 01:00:00 Snow snow 0.0305 0.66 28.19 18.69 26.67 0.94 10.59 32 1.06 0 1020.37 0 3/14/17 00:57:32 30.76 0 0 0 0
3/14/17 02:00:00 Snow snow 0.0294 0.66 29.13 19.02 27.34 0.93 12.33 41 1.09 1 1018.3 0 3/14/17 02:02:28 30.03 0 0.53 1.7536 0.016353
3/14/17 03:00:00 Snow snow 0.0333 0.67 30.09 19.65 28.57 0.94 13.71 41 2.25 0 1016 0 3/14/17 03:02:24 31.16 0 0 0.65653 0.0061226
3/14/17 04:00:00 Snow snow 0.0289 0.66 30.79 19.91 28.85 0.92 15.34 42 3.16 0 1013.05 0 3/14/17 04:02:20 32.45 0 0.66 57.0745 0.53226
3/14/17 05:00:00 Snow and Breezy snow 0.0534 0.73 30.41 18.42 28.16 0.91 18.29 39 2.84 0 1010.36 0 3/14/17 05:02:17 31.83 0 2.36 81.4879 0.75993
3/14/17 06:00:00 Snow and Breezy snow 0.0596 0.74 29.87 17.6 27.7 0.91 18.66 37 2.36 0 1007.73 0 3/14/17 06:02:14 30.71 0 1.71 0 0
3/14/17 07:00:00 Heavy Snow and Breezy snow 0.0987 0.8 29.91 17.25 27.65 0.91 19.95 31 2.41 0 1005.17 0 3/14/17 07:02:09 31.89 0 4.07 0 0
3/14/17 08:00:00 Heavy Snow and Breezy snow 0.1179 0.81 29.87 16.46 27.59 0.91 22.59 24 1.89 1 1002.49 0 3/14/17 08:02:05 31.72 0 42.7 0 0
3/14/17 09:00:00 Heavy Snow and Breezy snow 0.1004 0.8 30.47 17.28 28.34 0.92 22.49 16 1.27 0 998.56 0 3/14/17 09:02:02 32.45 0 75.28 0 0
3/14/17 10:00:00 Snow snow 0.055 0.74 31.08 19.47 28.86 0.91 17.73 16 1.27 0 997.59 0 3/14/17 10:01:58 34.47 0 106.68 0 0
3/14/17 11:00:00 Snow snow 0.0373 0.69 30.48 18.48 28.37 0.92 18.39 3 1.1 0 994.83 0 3/14/17 11:01:59 31.94 24.4141 113.64 0 0
3/14/17 12:00:00 Light Snow snow 0.0067 0.32 29.77 17.1 27.2 0.9 19.84 351 3.33 0 992.93 0 3/14/17 12:01:51 34.36 97.6563 120.87 0 0
3/14/17 13:00:00 Light Snow snow 0.0064 0.3 30.19 18.35 25.49 0.82 17.61 342 6.12 0 992.92 0 3/14/17 13:01:47 36.95 146.484 125.33 243.865 415.64
3/14/17 14:00:00 Light Snow snow 0.0094 0.5 30.51 18.88 26.56 0.85 17.26 329 4.36 1 992.53 0 3/14/17 14:01:43 36.56 122.07 125.99 477.465 868.33
3/14/17 15:00:00 Foggy fog 0.0014 0.03 31.56 20.59 28.29 0.88 16.22 320 1.42 0 993.54 0 3/14/17 15:01:39 38.53 97.6563 125.6 71.377 124.635
3/14/17 16:00:00 Light Snow snow 0.0059 0.27 31.96 20.44 26.86 0.81 18.3 317 6.19 0 994.02 0 3/14/17 16:01:36 39.71 195.312 128.09 272.321 475.515
3/14/17 17:00:00 Clear clear-day 0.0017 0.04 31.66 20.04 23.83 0.72 18.32 309 9.46 0 995.51 0 3/14/17 17:01:32 45.61 317.383 129.8 177.906 327.702
3/14/17 18:00:00 Flurries snow 0.0017 0.04 30.45 18.24 21.18 0.68 19.05 304 9.16 0 997.27 0 3/14/17 18:01:28 35.77 0 119.29 153.322 242.939
3/14/17 19:00:00 Clear clear-day 0 0 29.37 16.76 19.5 0.66 19.27 300 9.21 0 998.73 0 3/14/17 19:01:25 31.49 0 88.55 0 0
3/14/17 20:00:00 Overcast cloudy 0 0 28.26 15.51 18.66 0.67 18.62 295 9 1 1000.33 0 3/14/17 20:01:21 31.1 0 1.84 0 0
3/14/17 21:00:00 Breezy and Partly Cloudy wind 0 0 26.56 12.79 15.92 0.64 20.2 297 9.46 0.31 1001.56 0 3/14/17 21:01:17 29.47 0 0.26 98.2609 0.91635
3/14/17 22:00:00 Partly Cloudy partly-cloudy-night 0 0 24.66 11.6 14.29 0.64 16.48 296 9.31 0.28 1002.9 0 3/14/17 22:01:19 26.37 0 1.05 2.3381 0.021805
3/14/17 23:00:00 Partly Cloudy partly-cloudy-night 0 0 23.16 9.98 12.3 0.63 15.69 291 9.46 0.31 1004.19 0 3/14/17 23:01:10 25.53 0 1.31 196.287 1.8305
3/15/17 00:00:00 Partly Cloudy partly-cloudy-night 0 0 22.56 8.48 11.06 0.61 17.54 299 9.55 0.31 1004.34 0 3/15/17 00:01:06 24.41 0 0.13 20.6753 0.19281
3/15/17 01:00:00 Clear clear-night 0 0 22.15 8.75 10.41 0.6 15.5 297 9.55 0 1004.51 0 3/15/17 01:01:02 24.86 0 0.39 0 0
3/15/17 02:00:00 Mostly Cloudy partly-cloudy-night 0 0 22.09 9.21 9.87 0.59 14.29 294 9.55 0.75 1004.88 0 3/15/17 02:00:58 25.53 0 1.31 117.409 1.0949
3/15/17 03:00:00 Clear clear-night 0 0 22.05 8.65 10.07 0.59 15.44 291 9.05 0 1005.1 0 3/15/17 03:00:54 24.29 0 1.05 10.7385 0.10014
3/15/17 04:00:00 Partly Cloudy partly-cloudy-night 0 0 21.65 8.94 10.7 0.62 13.67 290 9.55 0.31 1005.24 0 3/15/17 04:00:50 23.51 0 1.71 0 0
3/15/17 05:00:00 Partly Cloudy partly-cloudy-night 0 0 20.91 8.11 10.42 0.63 13.43 284 8.83 0.31 1005.35 0 3/15/17 05:00:46 22.89 0 0 55.9485 0.52176
3/15/17 06:00:00 Clear clear-night 0 0 20.33 6.61 10.09 0.64 15.09 286 9.61 0 1005.81 0 3/15/17 06:00:47 22.21 0 0.39 115.542 19.3382
3/15/17 07:00:00 Partly Cloudy partly-cloudy-night 0 0 19.82 6.89 9.47 0.64 13.09 278 9.85 0.31 1006.13 0 3/15/17 07:00:40 21.14 0 62.8 0 0
3/15/17 08:00:00 Clear clear-day 0 0 19.8 5.99 9.03 0.62 14.96 272 10 0.12 1006.61 0 3/15/17 08:00:40 23.34 146.484 125.2 502.675 898.155
3/15/17 09:00:00 Clear clear-day 0 0 20.97 6.7 9.46 0.6 16.8 276 10 0.24 1006.68 0 3/15/17 09:00:31 25.92 439.453 130.72 105.467 198.365
3/15/17 10:00:00 Partly Cloudy partly-cloudy-day 0 0 22.18 8.08 9.52 0.58 17.31 283 9.72 0.31 1006.75 0 3/15/17 10:00:32 30.03 195.312 127.44 106.117 188.964
3/15/17 11:00:00 Clear clear-day 0 0 23.1 9.52 9.95 0.56 16.64 285 9.77 0 1006.59 0 3/15/17 11:00:23 32.11 170.898 127.96 229.987 401.594
3/15/17 12:00:00 Partly Cloudy partly-cloudy-day 0 0 23.48 9.7 13.37 0.65 17.46 283 4.95 0.31 1006.34 0 3/15/17 12:00:19 32.96 244.141 128.75 217.115 375.294
3/15/17 13:00:00 Clear clear-day 0 0 23.91 10.68 14.93 0.68 16.35 279 4.21 0 1006.33 0 3/15/17 12:57:44 33.52 195.312 129.67 163.276 275.334
3/15/17 14:00:00 Overcast cloudy 0.001 0.01 24.66 11.49 16.55 0.71 16.78 274 3.95 1 1006.15 0 3/15/17 13:57:40 32.68 195.312 129.28 117.567 211.346
3/15/17 15:00:00 Partly Cloudy partly-cloudy-day 0 0 25.22 12.7 17.7 0.73 15.5 272 3.77 0.31 1005.91 0 3/15/17 14:57:42 31.89 170.898 127.44 10.3188 17.8365
3/15/17 16:00:00 Clear clear-day 0 0 26.31 14.05 17.77 0.7 15.64 283 5.32 0 1006.34 0 3/15/17 15:57:38 29.3 24.4141 125.73 25.2221 41.9097
3/15/17 17:00:00 Clear clear-day 0 0 27.5 16.11 17.73 0.66 14.3 284 6.66 0 1006.77 0 3/15/17 17:02:29 31.1 24.4141 124.28 0 0
3/15/17 18:00:00 Clear clear-day 0 0 28.18 17.11 17.07 0.63 13.98 287 9.13 0 1007.53 0 3/15/17 18:02:25 31.44 0 119.16 0 0
3/15/17 19:00:00 Clear clear-day 0 0 29.32 18.87 15.53 0.56 13.22 287 9.16 0 1008.87 0 3/15/17 19:02:21 32.06 0 81.72 107.845 68.7833
3/15/17 20:00:00 Partly Cloudy partly-cloudy-night 0 0 29.52 19.2 13.73 0.51 13.06 291 10 0.56 1010.17 0 3/15/17 20:02:17 31.44 0 0.79 99.1269 0.92443
3/15/17 21:00:00 Clear clear-night 0 0 29.39 19.68 13.2 0.5 11.61 289 10 0 1011.62 0 3/15/17 21:02:14 31.1 48.8281 0.26 126.562 1.1803
3/15/17 22:00:00 Clear clear-night 0 0 28.82 18.39 12.65 0.5 12.87 290 10 0.14 1013.02 0 3/15/17 22:02:10 30.03 0 0.53 186.26 1.737
3/15/17 23:00:00 Partly Cloudy partly-cloudy-night 0 0 28.1 16.13 10.98 0.48 16.22 291 10 0.27 1014.09 0 3/15/17 23:02:06 29.24 0 0.53 35.0457 0.32683
3/16/17 00:00:00 Partly Cloudy partly-cloudy-night 0 0 27.26 15.27 11.15 0.5 15.63 293 10 0.29 1015.19 0 3/16/17 00:02:02 28.4 0 0.13 0 0
3/16/17 01:00:00 Clear clear-night 0 0 26.7 15.42 11 0.51 13.5 289 10 0.21 1015.69 0 3/16/17 01:01:58 27.67 0 0.39 235.374 2.195
3/16/17 02:00:00 Clear clear-night 0 0 25.73 14.04 10.33 0.51 13.86 287 10 0.18 1016 0 3/16/17 02:01:55 26.6 0 0.39 226.29 2.1103
3/16/17 03:00:00 Clear clear-night 0 0 24.89 13.54 10.14 0.53 12.63 281 10 0.15 1016.19 0 3/16/17 03:01:51 26.15 0 0.13 0 0
3/16/17 04:00:00 Clear clear-night 0 0 24.39 13.64 9.99 0.54 11.17 274 10 0.09 1016.01 0 3/16/17 04:01:47 25.14 0 0 21.4019 0.19959
3/16/17 05:00:00 Clear clear-night 0 0 23.94 13.98 10.24 0.55 9.6 270 10 0 1016.27 0 3/16/17 05:01:43 24.74 0 0.13 7.8223 0.072948
3/16/17 06:00:00 Clear clear-night 0 0 23.51 13.82 10.71 0.57 9.01 268 10 0 1016.79 0 3/16/17 06:01:39 24.41 0 0 21.3458 3.5726
3/16/17 07:00:00 Clear clear-night 0 0 23.4 13.72 10.72 0.58 8.96 264 10 0 1017.37 0 3/16/17 07:01:35 24.12 0 73.83 0 0
3/16/17 08:00:00 Clear clear-day 0 0 24.67 14.5 11.14 0.56 10.24 267 10 0.08 1017.79 0 3/16/17 08:01:31 27.5 170.898 124.68 127.394 230.367
3/16/17 09:00:00 Clear clear-day 0 0 26.98 16.31 12.25 0.53 12.34 272 10 0.08 1017.93 0 3/16/17 09:01:28 32.45 439.453 128.88 156.416 291.652
3/16/17 10:00:00 Clear clear-day 0 0 29.08 17.48 12.76 0.5 16 279 10 0.13 1017.99 0 3/16/17 10:01:24 38.81 732.422 127.83 100.212 176.728
3/16/17 11:00:00 Partly Cloudy partly-cloudy-day 0 0 30.98 19.31 13.02 0.47 17.85 287 10 0.28 1017.88 0 3/16/17 11:01:20 43.03 927.734 126.78 68.7542 117.184
3/16/17 12:00:00 Partly Cloudy partly-cloudy-day 0 0 32.84 21.66 13.11 0.44 18.06 294 10 0.31 1017.77 0 3/16/17 12:01:17 47.92 1025.39 125.2 356.757 601.603
3/16/17 13:00:00 Partly Cloudy partly-cloudy-day 0 0 34.15 23.01 13.22 0.42 19.26 286 10 0.31 1017.51 0 3/16/17 13:01:13 55.63 683.594 117.98 606.457 973.353
3/16/17 14:00:00 Partly Cloudy partly-cloudy-day 0 0 35.37 24.53 13.62 0.4 19.57 288 10 0.25 1017.36 0 3/16/17 14:01:10 60.8 1123.05 126.25 404.938 682.851
3/16/17 15:00:00 Partly Cloudy partly-cloudy-day 0.0009 0.01 36.52 26.54 13.92 0.39 17.71 290 10 0.3 1017.02 0 3/16/17 15:01:06 65.69 830.078 123.89 429.838 724.84
3/16/17 16:00:00 Partly Cloudy partly-cloudy-day 0 0 37.12 27.83 14.36 0.39 15.97 279 10 0.28 1017.09 0 3/16/17 16:01:03 59 610.352 126.78 305.605 500.172
3/16/17 17:00:00 Clear clear-day 0 0 37.46 27.85 15.08 0.4 17.4 286 10 0.21 1017.15 0 3/16/17 17:01:04 55.29 317.383 126.65 0 0
3/16/17 18:00:00 Clear clear-day 0 0 37.46 28.48 14.94 0.39 15.31 288 10 0.1 1017.34 0 3/16/17 18:00:56 39.09 0 116.01 0 0
3/16/17 19:00:00 Clear clear-day 0 0 36.27 27.81 15.16 0.42 12.87 279 10 0.08 1018.07 0 3/16/17 19:00:52 37.12 0 99.19 53.9285 45.2275
3/16/17 20:00:00 Clear clear-night 0 0 35.38 27.14 15.74 0.44 11.75 273 10 0 1018.96 0 3/16/17 20:00:48 35.49 0 0.66 92.2517 1.7206
3/16/17 21:00:00 Clear clear-night 0 0 34.19 26.33 15.97 0.47 10.23 271 10 0 1019.93 0 3/16/17 21:00:45 34.7 0 0.13 0 0
3/16/17 22:00:00 Clear clear-night 0 0 33.32 26.32 15.6 0.48 8.22 272 10 0 1020.72 0 3/16/17 22:00:41 34.08 0 0 134.496 1.2543
3/16/17 23:00:00 Clear clear-night 0 0 32.76 26.26 15.43 0.48 7.23 277 10 0 1021.34 0 3/16/17 22:55:38 33.13 0 0 197.376 1.8407
3/17/17 00:00:00 Clear clear-night 0 0 31.64 25.36 15.44 0.51 6.57 280 10 0 1021.87 0 3/16/17 23:59:20 32.39 0 0.26 311.954 2.9092
3/17/17 01:00:00 Clear clear-night 0 0 31.18 23.98 14.4 0.49 7.79 289 10 0 1022.65 0 3/17/17 00:59:16 32.34 0 0 334.141 3.1161
3/17/17 02:00:00 Clear clear-night 0 0 30.34 23.3 14.3 0.51 7.28 294 10 0 1023.52 0 3/17/17 01:59:13 31.83 0 0.26 459.86 4.2885
3/17/17 03:00:00 Clear clear-night 0 0 29.86 23.75 13.5 0.5 5.91 287 10 0 1023.8 0 3/17/17 02:59:09 31.66 0 0.13 640.105 5.9694
3/17/17 04:00:00 Clear clear-night 0 0 29.4 22.78 13.79 0.52 6.44 287 10 0 1023.84 0 3/17/17 03:59:05 30.37 0 0 705.408 6.5784
3/17/17 05:00:00 Clear clear-night 0 0 28.64 21.87 13.9 0.53 6.44 283 10 0 1024.52 0 3/17/17 04:59:02 29.75 0 0.39 296.537 2.7654
3/17/17 06:00:00 Clear clear-night 0 0 27.73 21.08 14.1 0.56 6.07 274 10 0 1025.38 0 3/17/17 05:58:58 29.52 0 0.39 305.148 39.7229
3/17/17 07:00:00 Clear clear-night 0 0 27.2 20.01 14 0.57 6.61 273 10 0 1026.15 0 3/17/17 06:59:04 28.4 0 71.34 225.833 249.01

1 2 Next